<?xml version="1.0" encoding="UTF-8" standalone="no" ?>
<gpx xmlns="http://www.topografix.com/GPX/1/1" xmlns:xsi="http://www.w3.org/2001/XMLSchema-instance" xsi:schemaLocation="http://www.topografix.com/GPX/1/1 http://www.topografix.com/GPX/1/1/gpx.xsd" version="1.1" creator="VisuGPX - https://www.visugpx.com">
  <metadata>
    <name> jurbise</name>
    <desc><![CDATA[marche de l\'ADEPS ]]></desc>
  </metadata>
  <trk>
    <name><![CDATA[17-MARS-13 11:39:55]]></name>
    <trkseg>
      <trkpt lat="50.51037" lon="3.92125">
        <ele>94.35</ele>
        <time>2013-03-17T08:40:52Z</time>
      </trkpt>
      <trkpt lat="50.51037" lon="3.92124">
        <ele>92.9</ele>
        <time>2013-03-17T08:40:55Z</time>
      </trkpt>
      <trkpt lat="50.51036" lon="3.92124">
        <ele>95.31</ele>
        <time>2013-03-17T08:40:56Z</time>
      </trkpt>
      <trkpt lat="50.51035" lon="3.9212">
        <ele>93.39</ele>
        <time>2013-03-17T08:41:02Z</time>
      </trkpt>
      <trkpt lat="50.51037" lon="3.92126">
        <ele>93.87</ele>
        <time>2013-03-17T08:41:17Z</time>
      </trkpt>
      <trkpt lat="50.51031" lon="3.92121">
        <ele>94.35</ele>
        <time>2013-03-17T08:41:18Z</time>
      </trkpt>
      <trkpt lat="50.51032" lon="3.92118">
        <ele>95.31</ele>
        <time>2013-03-17T08:41:25Z</time>
      </trkpt>
      <trkpt lat="50.51028" lon="3.92114">
        <ele>94.83</ele>
        <time>2013-03-17T08:41:32Z</time>
      </trkpt>
      <trkpt lat="50.51023" lon="3.92111">
        <ele>95.31</ele>
        <time>2013-03-17T08:41:38Z</time>
      </trkpt>
      <trkpt lat="50.51021" lon="3.92111">
        <ele>95.79</ele>
        <time>2013-03-17T08:41:40Z</time>
      </trkpt>
      <trkpt lat="50.51017" lon="3.92092">
        <ele>95.31</ele>
        <time>2013-03-17T08:41:53Z</time>
      </trkpt>
      <trkpt lat="50.51014" lon="3.92076">
        <ele>95.31</ele>
        <time>2013-03-17T08:42:01Z</time>
      </trkpt>
      <trkpt lat="50.51017" lon="3.92043">
        <ele>95.31</ele>
        <time>2013-03-17T08:42:18Z</time>
      </trkpt>
      <trkpt lat="50.51021" lon="3.92012">
        <ele>94.83</ele>
        <time>2013-03-17T08:42:34Z</time>
      </trkpt>
      <trkpt lat="50.51025" lon="3.91977">
        <ele>94.83</ele>
        <time>2013-03-17T08:42:52Z</time>
      </trkpt>
      <trkpt lat="50.51025" lon="3.91937">
        <ele>94.83</ele>
        <time>2013-03-17T08:43:11Z</time>
      </trkpt>
      <trkpt lat="50.51021" lon="3.91891">
        <ele>94.35</ele>
        <time>2013-03-17T08:43:30Z</time>
      </trkpt>
      <trkpt lat="50.51016" lon="3.91869">
        <ele>94.83</ele>
        <time>2013-03-17T08:43:42Z</time>
      </trkpt>
      <trkpt lat="50.51014" lon="3.91863">
        <ele>95.31</ele>
        <time>2013-03-17T08:43:45Z</time>
      </trkpt>
      <trkpt lat="50.5101" lon="3.91854">
        <ele>93.87</ele>
        <time>2013-03-17T08:43:50Z</time>
      </trkpt>
      <trkpt lat="50.51007" lon="3.91811">
        <ele>94.35</ele>
        <time>2013-03-17T08:44:09Z</time>
      </trkpt>
      <trkpt lat="50.50999" lon="3.91782">
        <ele>94.35</ele>
        <time>2013-03-17T08:44:24Z</time>
      </trkpt>
      <trkpt lat="50.50997" lon="3.91772">
        <ele>94.35</ele>
        <time>2013-03-17T08:44:30Z</time>
      </trkpt>
      <trkpt lat="50.51009" lon="3.91758">
        <ele>93.87</ele>
        <time>2013-03-17T08:44:46Z</time>
      </trkpt>
      <trkpt lat="50.51023" lon="3.91743">
        <ele>93.39</ele>
        <time>2013-03-17T08:45:01Z</time>
      </trkpt>
      <trkpt lat="50.51037" lon="3.91735">
        <ele>93.39</ele>
        <time>2013-03-17T08:45:16Z</time>
      </trkpt>
      <trkpt lat="50.51053" lon="3.91726">
        <ele>92.42</ele>
        <time>2013-03-17T08:45:32Z</time>
      </trkpt>
      <trkpt lat="50.51061" lon="3.91723">
        <ele>92.42</ele>
        <time>2013-03-17T08:45:45Z</time>
      </trkpt>
      <trkpt lat="50.51072" lon="3.91716">
        <ele>91.46</ele>
        <time>2013-03-17T08:45:59Z</time>
      </trkpt>
      <trkpt lat="50.51088" lon="3.91707">
        <ele>91.46</ele>
        <time>2013-03-17T08:46:14Z</time>
      </trkpt>
      <trkpt lat="50.51117" lon="3.91686">
        <ele>90.98</ele>
        <time>2013-03-17T08:46:32Z</time>
      </trkpt>
      <trkpt lat="50.51139" lon="3.91672">
        <ele>90.02</ele>
        <time>2013-03-17T08:46:46Z</time>
      </trkpt>
      <trkpt lat="50.51159" lon="3.91656">
        <ele>89.54</ele>
        <time>2013-03-17T08:47:01Z</time>
      </trkpt>
      <trkpt lat="50.51181" lon="3.91636">
        <ele>89.54</ele>
        <time>2013-03-17T08:47:19Z</time>
      </trkpt>
      <trkpt lat="50.51205" lon="3.91619">
        <ele>89.54</ele>
        <time>2013-03-17T08:47:37Z</time>
      </trkpt>
      <trkpt lat="50.51221" lon="3.91608">
        <ele>89.54</ele>
        <time>2013-03-17T08:47:48Z</time>
      </trkpt>
      <trkpt lat="50.51232" lon="3.91597">
        <ele>89.54</ele>
        <time>2013-03-17T08:47:53Z</time>
      </trkpt>
      <trkpt lat="50.51256" lon="3.91574">
        <ele>89.06</ele>
        <time>2013-03-17T08:48:11Z</time>
      </trkpt>
      <trkpt lat="50.51266" lon="3.91567">
        <ele>89.06</ele>
        <time>2013-03-17T08:48:19Z</time>
      </trkpt>
      <trkpt lat="50.51288" lon="3.91553">
        <ele>88.58</ele>
        <time>2013-03-17T08:48:39Z</time>
      </trkpt>
      <trkpt lat="50.51309" lon="3.91538">
        <ele>88.58</ele>
        <time>2013-03-17T08:48:57Z</time>
      </trkpt>
      <trkpt lat="50.51326" lon="3.91524">
        <ele>87.62</ele>
        <time>2013-03-17T08:49:12Z</time>
      </trkpt>
      <trkpt lat="50.51355" lon="3.91506">
        <ele>87.62</ele>
        <time>2013-03-17T08:49:35Z</time>
      </trkpt>
      <trkpt lat="50.51378" lon="3.91489">
        <ele>87.62</ele>
        <time>2013-03-17T08:49:54Z</time>
      </trkpt>
      <trkpt lat="50.51396" lon="3.91477">
        <ele>87.14</ele>
        <time>2013-03-17T08:50:09Z</time>
      </trkpt>
      <trkpt lat="50.51398" lon="3.91475">
        <ele>87.14</ele>
        <time>2013-03-17T08:50:15Z</time>
      </trkpt>
      <trkpt lat="50.51413" lon="3.91466">
        <ele>87.14</ele>
        <time>2013-03-17T08:50:27Z</time>
      </trkpt>
      <trkpt lat="50.51419" lon="3.9146">
        <ele>86.66</ele>
        <time>2013-03-17T08:50:32Z</time>
      </trkpt>
      <trkpt lat="50.51444" lon="3.91442">
        <ele>86.66</ele>
        <time>2013-03-17T08:50:51Z</time>
      </trkpt>
      <trkpt lat="50.51464" lon="3.91427">
        <ele>86.18</ele>
        <time>2013-03-17T08:51:07Z</time>
      </trkpt>
      <trkpt lat="50.51484" lon="3.91413">
        <ele>86.18</ele>
        <time>2013-03-17T08:51:23Z</time>
      </trkpt>
      <trkpt lat="50.51506" lon="3.91395">
        <ele>85.21</ele>
        <time>2013-03-17T08:51:41Z</time>
      </trkpt>
      <trkpt lat="50.51508" lon="3.91394">
        <ele>85.21</ele>
        <time>2013-03-17T08:51:42Z</time>
      </trkpt>
      <trkpt lat="50.51528" lon="3.91379">
        <ele>84.25</ele>
        <time>2013-03-17T08:51:59Z</time>
      </trkpt>
      <trkpt lat="50.51551" lon="3.91364">
        <ele>83.77</ele>
        <time>2013-03-17T08:52:18Z</time>
      </trkpt>
      <trkpt lat="50.51568" lon="3.91352">
        <ele>83.77</ele>
        <time>2013-03-17T08:52:33Z</time>
      </trkpt>
      <trkpt lat="50.5157" lon="3.91349">
        <ele>83.77</ele>
        <time>2013-03-17T08:52:35Z</time>
      </trkpt>
      <trkpt lat="50.51576" lon="3.91343">
        <ele>83.77</ele>
        <time>2013-03-17T08:52:41Z</time>
      </trkpt>
      <trkpt lat="50.51595" lon="3.91332">
        <ele>83.77</ele>
        <time>2013-03-17T08:52:58Z</time>
      </trkpt>
      <trkpt lat="50.51601" lon="3.91326">
        <ele>84.25</ele>
        <time>2013-03-17T08:53:04Z</time>
      </trkpt>
      <trkpt lat="50.51617" lon="3.91313">
        <ele>83.77</ele>
        <time>2013-03-17T08:53:19Z</time>
      </trkpt>
      <trkpt lat="50.5164" lon="3.91299">
        <ele>84.25</ele>
        <time>2013-03-17T08:53:38Z</time>
      </trkpt>
      <trkpt lat="50.51658" lon="3.91285">
        <ele>84.25</ele>
        <time>2013-03-17T08:53:53Z</time>
      </trkpt>
      <trkpt lat="50.5168" lon="3.9127">
        <ele>83.29</ele>
        <time>2013-03-17T08:54:12Z</time>
      </trkpt>
      <trkpt lat="50.51702" lon="3.91255">
        <ele>83.77</ele>
        <time>2013-03-17T08:54:31Z</time>
      </trkpt>
      <trkpt lat="50.51722" lon="3.9124">
        <ele>83.29</ele>
        <time>2013-03-17T08:54:48Z</time>
      </trkpt>
      <trkpt lat="50.51747" lon="3.9122">
        <ele>83.77</ele>
        <time>2013-03-17T08:55:08Z</time>
      </trkpt>
      <trkpt lat="50.51766" lon="3.91207">
        <ele>83.77</ele>
        <time>2013-03-17T08:55:24Z</time>
      </trkpt>
      <trkpt lat="50.51776" lon="3.91197">
        <ele>83.29</ele>
        <time>2013-03-17T08:55:34Z</time>
      </trkpt>
      <trkpt lat="50.5178" lon="3.91194">
        <ele>83.29</ele>
        <time>2013-03-17T08:55:38Z</time>
      </trkpt>
      <trkpt lat="50.51804" lon="3.91174">
        <ele>84.25</ele>
        <time>2013-03-17T08:56:01Z</time>
      </trkpt>
      <trkpt lat="50.51825" lon="3.9116">
        <ele>84.25</ele>
        <time>2013-03-17T08:56:18Z</time>
      </trkpt>
      <trkpt lat="50.5183" lon="3.91148">
        <ele>84.25</ele>
        <time>2013-03-17T08:56:23Z</time>
      </trkpt>
      <trkpt lat="50.51827" lon="3.91097">
        <ele>84.73</ele>
        <time>2013-03-17T08:56:43Z</time>
      </trkpt>
      <trkpt lat="50.51816" lon="3.91057">
        <ele>84.25</ele>
        <time>2013-03-17T08:57:03Z</time>
      </trkpt>
      <trkpt lat="50.51808" lon="3.91034">
        <ele>83.77</ele>
        <time>2013-03-17T08:57:15Z</time>
      </trkpt>
      <trkpt lat="50.51794" lon="3.90992">
        <ele>83.29</ele>
        <time>2013-03-17T08:57:37Z</time>
      </trkpt>
      <trkpt lat="50.51786" lon="3.90969">
        <ele>83.29</ele>
        <time>2013-03-17T08:57:49Z</time>
      </trkpt>
      <trkpt lat="50.51784" lon="3.90961">
        <ele>83.29</ele>
        <time>2013-03-17T08:57:53Z</time>
      </trkpt>
      <trkpt lat="50.51771" lon="3.90921">
        <ele>82.33</ele>
        <time>2013-03-17T08:58:15Z</time>
      </trkpt>
      <trkpt lat="50.51769" lon="3.90897">
        <ele>81.85</ele>
        <time>2013-03-17T08:58:28Z</time>
      </trkpt>
      <trkpt lat="50.51777" lon="3.90895">
        <ele>81.85</ele>
        <time>2013-03-17T08:58:36Z</time>
      </trkpt>
      <trkpt lat="50.51801" lon="3.90895">
        <ele>81.85</ele>
        <time>2013-03-17T08:58:55Z</time>
      </trkpt>
      <trkpt lat="50.51827" lon="3.90894">
        <ele>81.85</ele>
        <time>2013-03-17T08:59:14Z</time>
      </trkpt>
      <trkpt lat="50.5184" lon="3.90891">
        <ele>82.33</ele>
        <time>2013-03-17T08:59:25Z</time>
      </trkpt>
      <trkpt lat="50.51846" lon="3.90892">
        <ele>81.85</ele>
        <time>2013-03-17T08:59:32Z</time>
      </trkpt>
      <trkpt lat="50.51847" lon="3.90878">
        <ele>81.85</ele>
        <time>2013-03-17T08:59:39Z</time>
      </trkpt>
      <trkpt lat="50.51856" lon="3.90827">
        <ele>81.85</ele>
        <time>2013-03-17T09:00:03Z</time>
      </trkpt>
      <trkpt lat="50.5186" lon="3.90779">
        <ele>81.85</ele>
        <time>2013-03-17T09:00:24Z</time>
      </trkpt>
      <trkpt lat="50.51857" lon="3.90737">
        <ele>81.37</ele>
        <time>2013-03-17T09:00:42Z</time>
      </trkpt>
      <trkpt lat="50.51856" lon="3.90715">
        <ele>81.85</ele>
        <time>2013-03-17T09:00:52Z</time>
      </trkpt>
      <trkpt lat="50.51852" lon="3.90672">
        <ele>81.37</ele>
        <time>2013-03-17T09:01:11Z</time>
      </trkpt>
      <trkpt lat="50.5185" lon="3.90654">
        <ele>81.85</ele>
        <time>2013-03-17T09:01:19Z</time>
      </trkpt>
      <trkpt lat="50.5185" lon="3.90651">
        <ele>81.37</ele>
        <time>2013-03-17T09:01:20Z</time>
      </trkpt>
      <trkpt lat="50.51849" lon="3.90649">
        <ele>80.89</ele>
        <time>2013-03-17T09:01:21Z</time>
      </trkpt>
      <trkpt lat="50.51849" lon="3.90647">
        <ele>80.89</ele>
        <time>2013-03-17T09:01:22Z</time>
      </trkpt>
      <trkpt lat="50.51849" lon="3.90645">
        <ele>81.37</ele>
        <time>2013-03-17T09:01:23Z</time>
      </trkpt>
      <trkpt lat="50.51848" lon="3.90643">
        <ele>80.41</ele>
        <time>2013-03-17T09:01:24Z</time>
      </trkpt>
      <trkpt lat="50.51848" lon="3.90641">
        <ele>80.41</ele>
        <time>2013-03-17T09:01:25Z</time>
      </trkpt>
      <trkpt lat="50.51843" lon="3.90604">
        <ele>80.89</ele>
        <time>2013-03-17T09:01:45Z</time>
      </trkpt>
      <trkpt lat="50.51841" lon="3.90574">
        <ele>81.85</ele>
        <time>2013-03-17T09:02:00Z</time>
      </trkpt>
      <trkpt lat="50.5184" lon="3.90547">
        <ele>82.33</ele>
        <time>2013-03-17T09:02:14Z</time>
      </trkpt>
      <trkpt lat="50.5184" lon="3.90544">
        <ele>82.33</ele>
        <time>2013-03-17T09:02:16Z</time>
      </trkpt>
      <trkpt lat="50.5184" lon="3.90542">
        <ele>81.85</ele>
        <time>2013-03-17T09:02:17Z</time>
      </trkpt>
      <trkpt lat="50.51837" lon="3.90494">
        <ele>81.85</ele>
        <time>2013-03-17T09:02:38Z</time>
      </trkpt>
      <trkpt lat="50.51835" lon="3.90447">
        <ele>81.85</ele>
        <time>2013-03-17T09:03:00Z</time>
      </trkpt>
      <trkpt lat="50.5183" lon="3.90397">
        <ele>81.85</ele>
        <time>2013-03-17T09:03:23Z</time>
      </trkpt>
      <trkpt lat="50.51827" lon="3.90359">
        <ele>81.37</ele>
        <time>2013-03-17T09:03:41Z</time>
      </trkpt>
      <trkpt lat="50.51826" lon="3.90356">
        <ele>81.85</ele>
        <time>2013-03-17T09:03:42Z</time>
      </trkpt>
      <trkpt lat="50.51827" lon="3.90354">
        <ele>81.85</ele>
        <time>2013-03-17T09:03:43Z</time>
      </trkpt>
      <trkpt lat="50.51826" lon="3.90352">
        <ele>81.37</ele>
        <time>2013-03-17T09:03:44Z</time>
      </trkpt>
      <trkpt lat="50.51826" lon="3.9035">
        <ele>81.85</ele>
        <time>2013-03-17T09:03:45Z</time>
      </trkpt>
      <trkpt lat="50.51826" lon="3.90348">
        <ele>81.85</ele>
        <time>2013-03-17T09:03:46Z</time>
      </trkpt>
      <trkpt lat="50.51826" lon="3.90347">
        <ele>81.37</ele>
        <time>2013-03-17T09:03:47Z</time>
      </trkpt>
      <trkpt lat="50.51826" lon="3.90345">
        <ele>81.85</ele>
        <time>2013-03-17T09:03:48Z</time>
      </trkpt>
      <trkpt lat="50.51826" lon="3.90343">
        <ele>81.85</ele>
        <time>2013-03-17T09:03:49Z</time>
      </trkpt>
      <trkpt lat="50.51823" lon="3.90296">
        <ele>81.37</ele>
        <time>2013-03-17T09:04:10Z</time>
      </trkpt>
      <trkpt lat="50.5182" lon="3.90249">
        <ele>81.37</ele>
        <time>2013-03-17T09:04:32Z</time>
      </trkpt>
      <trkpt lat="50.51816" lon="3.90197">
        <ele>80.89</ele>
        <time>2013-03-17T09:04:56Z</time>
      </trkpt>
      <trkpt lat="50.51813" lon="3.9015">
        <ele>81.37</ele>
        <time>2013-03-17T09:05:18Z</time>
      </trkpt>
      <trkpt lat="50.5181" lon="3.90111">
        <ele>80.89</ele>
        <time>2013-03-17T09:05:36Z</time>
      </trkpt>
      <trkpt lat="50.51805" lon="3.90065">
        <ele>80.89</ele>
        <time>2013-03-17T09:05:58Z</time>
      </trkpt>
      <trkpt lat="50.51802" lon="3.90027">
        <ele>80.41</ele>
        <time>2013-03-17T09:06:16Z</time>
      </trkpt>
      <trkpt lat="50.51792" lon="3.89986">
        <ele>80.41</ele>
        <time>2013-03-17T09:06:36Z</time>
      </trkpt>
      <trkpt lat="50.51774" lon="3.89952">
        <ele>80.89</ele>
        <time>2013-03-17T09:06:57Z</time>
      </trkpt>
      <trkpt lat="50.51754" lon="3.89916">
        <ele>80.89</ele>
        <time>2013-03-17T09:07:19Z</time>
      </trkpt>
      <trkpt lat="50.51739" lon="3.89884">
        <ele>80.89</ele>
        <time>2013-03-17T09:07:37Z</time>
      </trkpt>
      <trkpt lat="50.51719" lon="3.89854">
        <ele>81.37</ele>
        <time>2013-03-17T09:07:57Z</time>
      </trkpt>
      <trkpt lat="50.51714" lon="3.89841">
        <ele>80.89</ele>
        <time>2013-03-17T09:08:07Z</time>
      </trkpt>
      <trkpt lat="50.51714" lon="3.8984">
        <ele>80.89</ele>
        <time>2013-03-17T09:08:08Z</time>
      </trkpt>
      <trkpt lat="50.51713" lon="3.89838">
        <ele>80.89</ele>
        <time>2013-03-17T09:08:09Z</time>
      </trkpt>
      <trkpt lat="50.51713" lon="3.89836">
        <ele>81.37</ele>
        <time>2013-03-17T09:08:10Z</time>
      </trkpt>
      <trkpt lat="50.51712" lon="3.89835">
        <ele>80.89</ele>
        <time>2013-03-17T09:08:11Z</time>
      </trkpt>
      <trkpt lat="50.51697" lon="3.89808">
        <ele>81.37</ele>
        <time>2013-03-17T09:08:27Z</time>
      </trkpt>
      <trkpt lat="50.51678" lon="3.89775">
        <ele>81.37</ele>
        <time>2013-03-17T09:08:47Z</time>
      </trkpt>
      <trkpt lat="50.51657" lon="3.89736">
        <ele>81.85</ele>
        <time>2013-03-17T09:09:08Z</time>
      </trkpt>
      <trkpt lat="50.51637" lon="3.89708">
        <ele>80.41</ele>
        <time>2013-03-17T09:09:26Z</time>
      </trkpt>
      <trkpt lat="50.51619" lon="3.8967">
        <ele>80.89</ele>
        <time>2013-03-17T09:09:46Z</time>
      </trkpt>
      <trkpt lat="50.51616" lon="3.89665">
        <ele>80.41</ele>
        <time>2013-03-17T09:09:49Z</time>
      </trkpt>
      <trkpt lat="50.51614" lon="3.89665">
        <ele>80.89</ele>
        <time>2013-03-17T09:09:50Z</time>
      </trkpt>
      <trkpt lat="50.51612" lon="3.89666">
        <ele>80.89</ele>
        <time>2013-03-17T09:09:51Z</time>
      </trkpt>
      <trkpt lat="50.51611" lon="3.89667">
        <ele>80.89</ele>
        <time>2013-03-17T09:09:52Z</time>
      </trkpt>
      <trkpt lat="50.5161" lon="3.89668">
        <ele>80.89</ele>
        <time>2013-03-17T09:09:53Z</time>
      </trkpt>
      <trkpt lat="50.51608" lon="3.8967">
        <ele>80.89</ele>
        <time>2013-03-17T09:09:54Z</time>
      </trkpt>
      <trkpt lat="50.51607" lon="3.89671">
        <ele>80.89</ele>
        <time>2013-03-17T09:09:55Z</time>
      </trkpt>
      <trkpt lat="50.51606" lon="3.89672">
        <ele>80.41</ele>
        <time>2013-03-17T09:09:56Z</time>
      </trkpt>
      <trkpt lat="50.51605" lon="3.89673">
        <ele>80.89</ele>
        <time>2013-03-17T09:09:57Z</time>
      </trkpt>
      <trkpt lat="50.51604" lon="3.89674">
        <ele>80.41</ele>
        <time>2013-03-17T09:09:58Z</time>
      </trkpt>
      <trkpt lat="50.51594" lon="3.89682">
        <ele>79.93</ele>
        <time>2013-03-17T09:10:07Z</time>
      </trkpt>
      <trkpt lat="50.51592" lon="3.89682">
        <ele>79.93</ele>
        <time>2013-03-17T09:10:08Z</time>
      </trkpt>
      <trkpt lat="50.51591" lon="3.89684">
        <ele>79.45</ele>
        <time>2013-03-17T09:10:09Z</time>
      </trkpt>
      <trkpt lat="50.5159" lon="3.89685">
        <ele>79.93</ele>
        <time>2013-03-17T09:10:10Z</time>
      </trkpt>
      <trkpt lat="50.51588" lon="3.89687">
        <ele>79.45</ele>
        <time>2013-03-17T09:10:11Z</time>
      </trkpt>
      <trkpt lat="50.51566" lon="3.8971">
        <ele>78.97</ele>
        <time>2013-03-17T09:10:30Z</time>
      </trkpt>
      <trkpt lat="50.51547" lon="3.89716">
        <ele>78.48</ele>
        <time>2013-03-17T09:10:47Z</time>
      </trkpt>
      <trkpt lat="50.51543" lon="3.89713">
        <ele>78.48</ele>
        <time>2013-03-17T09:10:52Z</time>
      </trkpt>
      <trkpt lat="50.51522" lon="3.89702">
        <ele>77.52</ele>
        <time>2013-03-17T09:11:10Z</time>
      </trkpt>
      <trkpt lat="50.51494" lon="3.89677">
        <ele>77.52</ele>
        <time>2013-03-17T09:11:31Z</time>
      </trkpt>
      <trkpt lat="50.51476" lon="3.8966">
        <ele>77.04</ele>
        <time>2013-03-17T09:11:46Z</time>
      </trkpt>
      <trkpt lat="50.51455" lon="3.89629">
        <ele>77.04</ele>
        <time>2013-03-17T09:12:05Z</time>
      </trkpt>
      <trkpt lat="50.51442" lon="3.89598">
        <ele>77.52</ele>
        <time>2013-03-17T09:12:22Z</time>
      </trkpt>
      <trkpt lat="50.51423" lon="3.8958">
        <ele>78.48</ele>
        <time>2013-03-17T09:12:40Z</time>
      </trkpt>
      <trkpt lat="50.51395" lon="3.89563">
        <ele>78.48</ele>
        <time>2013-03-17T09:12:59Z</time>
      </trkpt>
      <trkpt lat="50.51368" lon="3.89558">
        <ele>78</ele>
        <time>2013-03-17T09:13:16Z</time>
      </trkpt>
      <trkpt lat="50.51348" lon="3.89548">
        <ele>77.52</ele>
        <time>2013-03-17T09:13:32Z</time>
      </trkpt>
      <trkpt lat="50.51329" lon="3.89526">
        <ele>78</ele>
        <time>2013-03-17T09:13:51Z</time>
      </trkpt>
      <trkpt lat="50.5132" lon="3.89498">
        <ele>77.52</ele>
        <time>2013-03-17T09:14:07Z</time>
      </trkpt>
      <trkpt lat="50.51307" lon="3.8947">
        <ele>77.04</ele>
        <time>2013-03-17T09:14:23Z</time>
      </trkpt>
      <trkpt lat="50.51305" lon="3.89466">
        <ele>77.04</ele>
        <time>2013-03-17T09:14:26Z</time>
      </trkpt>
      <trkpt lat="50.51304" lon="3.89462">
        <ele>77.04</ele>
        <time>2013-03-17T09:14:28Z</time>
      </trkpt>
      <trkpt lat="50.51303" lon="3.8946">
        <ele>77.04</ele>
        <time>2013-03-17T09:14:29Z</time>
      </trkpt>
      <trkpt lat="50.51303" lon="3.89459">
        <ele>77.52</ele>
        <time>2013-03-17T09:14:30Z</time>
      </trkpt>
      <trkpt lat="50.51302" lon="3.89457">
        <ele>77.04</ele>
        <time>2013-03-17T09:14:31Z</time>
      </trkpt>
      <trkpt lat="50.51301" lon="3.89456">
        <ele>76.56</ele>
        <time>2013-03-17T09:14:32Z</time>
      </trkpt>
      <trkpt lat="50.513" lon="3.89455">
        <ele>77.52</ele>
        <time>2013-03-17T09:14:33Z</time>
      </trkpt>
      <trkpt lat="50.51299" lon="3.89453">
        <ele>76.56</ele>
        <time>2013-03-17T09:14:34Z</time>
      </trkpt>
      <trkpt lat="50.51289" lon="3.89433">
        <ele>76.56</ele>
        <time>2013-03-17T09:14:46Z</time>
      </trkpt>
      <trkpt lat="50.51288" lon="3.89431">
        <ele>77.04</ele>
        <time>2013-03-17T09:14:47Z</time>
      </trkpt>
      <trkpt lat="50.51276" lon="3.89398">
        <ele>77.52</ele>
        <time>2013-03-17T09:15:05Z</time>
      </trkpt>
      <trkpt lat="50.51262" lon="3.89369">
        <ele>77.52</ele>
        <time>2013-03-17T09:15:21Z</time>
      </trkpt>
      <trkpt lat="50.51249" lon="3.89348">
        <ele>77.52</ele>
        <time>2013-03-17T09:15:34Z</time>
      </trkpt>
      <trkpt lat="50.51248" lon="3.89347">
        <ele>77.52</ele>
        <time>2013-03-17T09:15:35Z</time>
      </trkpt>
      <trkpt lat="50.51247" lon="3.89346">
        <ele>77.52</ele>
        <time>2013-03-17T09:15:36Z</time>
      </trkpt>
      <trkpt lat="50.51245" lon="3.89344">
        <ele>78</ele>
        <time>2013-03-17T09:15:37Z</time>
      </trkpt>
      <trkpt lat="50.51244" lon="3.89343">
        <ele>78</ele>
        <time>2013-03-17T09:15:38Z</time>
      </trkpt>
      <trkpt lat="50.51223" lon="3.89317">
        <ele>77.52</ele>
        <time>2013-03-17T09:15:58Z</time>
      </trkpt>
      <trkpt lat="50.51204" lon="3.89296">
        <ele>78</ele>
        <time>2013-03-17T09:16:15Z</time>
      </trkpt>
      <trkpt lat="50.51189" lon="3.89279">
        <ele>78</ele>
        <time>2013-03-17T09:16:29Z</time>
      </trkpt>
      <trkpt lat="50.5117" lon="3.89256">
        <ele>77.04</ele>
        <time>2013-03-17T09:16:47Z</time>
      </trkpt>
      <trkpt lat="50.51153" lon="3.89234">
        <ele>77.04</ele>
        <time>2013-03-17T09:17:04Z</time>
      </trkpt>
      <trkpt lat="50.51131" lon="3.89217">
        <ele>76.56</ele>
        <time>2013-03-17T09:17:21Z</time>
      </trkpt>
      <trkpt lat="50.51107" lon="3.89197">
        <ele>76.56</ele>
        <time>2013-03-17T09:17:41Z</time>
      </trkpt>
      <trkpt lat="50.51086" lon="3.89176">
        <ele>77.52</ele>
        <time>2013-03-17T09:17:59Z</time>
      </trkpt>
      <trkpt lat="50.51064" lon="3.89156">
        <ele>76.08</ele>
        <time>2013-03-17T09:18:18Z</time>
      </trkpt>
      <trkpt lat="50.51045" lon="3.89134">
        <ele>76.08</ele>
        <time>2013-03-17T09:18:36Z</time>
      </trkpt>
      <trkpt lat="50.51024" lon="3.8911">
        <ele>76.56</ele>
        <time>2013-03-17T09:18:55Z</time>
      </trkpt>
      <trkpt lat="50.51013" lon="3.89099">
        <ele>76.08</ele>
        <time>2013-03-17T09:19:05Z</time>
      </trkpt>
      <trkpt lat="50.51012" lon="3.89098">
        <ele>76.08</ele>
        <time>2013-03-17T09:19:06Z</time>
      </trkpt>
      <trkpt lat="50.50989" lon="3.89077">
        <ele>76.08</ele>
        <time>2013-03-17T09:19:25Z</time>
      </trkpt>
      <trkpt lat="50.50971" lon="3.8906">
        <ele>75.12</ele>
        <time>2013-03-17T09:19:41Z</time>
      </trkpt>
      <trkpt lat="50.50951" lon="3.89044">
        <ele>75.12</ele>
        <time>2013-03-17T09:19:57Z</time>
      </trkpt>
      <trkpt lat="50.50934" lon="3.8903">
        <ele>74.16</ele>
        <time>2013-03-17T09:20:13Z</time>
      </trkpt>
      <trkpt lat="50.50917" lon="3.89013">
        <ele>74.16</ele>
        <time>2013-03-17T09:20:28Z</time>
      </trkpt>
      <trkpt lat="50.50898" lon="3.88998">
        <ele>73.68</ele>
        <time>2013-03-17T09:20:44Z</time>
      </trkpt>
      <trkpt lat="50.50896" lon="3.88996">
        <ele>73.68</ele>
        <time>2013-03-17T09:20:46Z</time>
      </trkpt>
      <trkpt lat="50.50895" lon="3.88995">
        <ele>73.68</ele>
        <time>2013-03-17T09:20:47Z</time>
      </trkpt>
      <trkpt lat="50.50894" lon="3.88994">
        <ele>73.68</ele>
        <time>2013-03-17T09:20:48Z</time>
      </trkpt>
      <trkpt lat="50.50893" lon="3.88993">
        <ele>73.2</ele>
        <time>2013-03-17T09:20:49Z</time>
      </trkpt>
      <trkpt lat="50.50892" lon="3.88992">
        <ele>73.68</ele>
        <time>2013-03-17T09:20:50Z</time>
      </trkpt>
      <trkpt lat="50.50891" lon="3.88991">
        <ele>73.68</ele>
        <time>2013-03-17T09:20:51Z</time>
      </trkpt>
      <trkpt lat="50.5089" lon="3.8899">
        <ele>73.68</ele>
        <time>2013-03-17T09:20:52Z</time>
      </trkpt>
      <trkpt lat="50.50889" lon="3.88989">
        <ele>73.68</ele>
        <time>2013-03-17T09:20:53Z</time>
      </trkpt>
      <trkpt lat="50.50879" lon="3.88979">
        <ele>73.68</ele>
        <time>2013-03-17T09:21:01Z</time>
      </trkpt>
      <trkpt lat="50.50879" lon="3.88978">
        <ele>73.2</ele>
        <time>2013-03-17T09:21:02Z</time>
      </trkpt>
      <trkpt lat="50.50859" lon="3.88959">
        <ele>73.2</ele>
        <time>2013-03-17T09:21:19Z</time>
      </trkpt>
      <trkpt lat="50.50837" lon="3.88941">
        <ele>72.72</ele>
        <time>2013-03-17T09:21:37Z</time>
      </trkpt>
      <trkpt lat="50.50816" lon="3.88921">
        <ele>72.24</ele>
        <time>2013-03-17T09:21:56Z</time>
      </trkpt>
      <trkpt lat="50.50796" lon="3.88903">
        <ele>73.68</ele>
        <time>2013-03-17T09:22:13Z</time>
      </trkpt>
      <trkpt lat="50.50774" lon="3.88887">
        <ele>73.2</ele>
        <time>2013-03-17T09:22:31Z</time>
      </trkpt>
      <trkpt lat="50.50753" lon="3.88881">
        <ele>72.72</ele>
        <time>2013-03-17T09:22:48Z</time>
      </trkpt>
      <trkpt lat="50.50745" lon="3.88878">
        <ele>72.72</ele>
        <time>2013-03-17T09:22:55Z</time>
      </trkpt>
      <trkpt lat="50.50725" lon="3.88869">
        <ele>72.72</ele>
        <time>2013-03-17T09:23:11Z</time>
      </trkpt>
      <trkpt lat="50.50719" lon="3.88865">
        <ele>71.76</ele>
        <time>2013-03-17T09:23:16Z</time>
      </trkpt>
      <trkpt lat="50.50718" lon="3.88864">
        <ele>72.24</ele>
        <time>2013-03-17T09:23:17Z</time>
      </trkpt>
      <trkpt lat="50.50717" lon="3.88864">
        <ele>71.76</ele>
        <time>2013-03-17T09:23:18Z</time>
      </trkpt>
      <trkpt lat="50.50716" lon="3.88863">
        <ele>72.24</ele>
        <time>2013-03-17T09:23:19Z</time>
      </trkpt>
      <trkpt lat="50.50715" lon="3.88863">
        <ele>72.24</ele>
        <time>2013-03-17T09:23:20Z</time>
      </trkpt>
      <trkpt lat="50.50699" lon="3.88855">
        <ele>72.72</ele>
        <time>2013-03-17T09:23:33Z</time>
      </trkpt>
      <trkpt lat="50.50683" lon="3.88847">
        <ele>73.68</ele>
        <time>2013-03-17T09:23:49Z</time>
      </trkpt>
      <trkpt lat="50.50681" lon="3.88843">
        <ele>74.64</ele>
        <time>2013-03-17T09:23:54Z</time>
      </trkpt>
      <trkpt lat="50.50681" lon="3.88842">
        <ele>74.64</ele>
        <time>2013-03-17T09:23:55Z</time>
      </trkpt>
      <trkpt lat="50.50681" lon="3.88841">
        <ele>74.64</ele>
        <time>2013-03-17T09:23:56Z</time>
      </trkpt>
      <trkpt lat="50.5068" lon="3.8884">
        <ele>74.64</ele>
        <time>2013-03-17T09:23:57Z</time>
      </trkpt>
      <trkpt lat="50.5068" lon="3.88838">
        <ele>74.16</ele>
        <time>2013-03-17T09:23:58Z</time>
      </trkpt>
      <trkpt lat="50.50679" lon="3.88837">
        <ele>74.64</ele>
        <time>2013-03-17T09:23:59Z</time>
      </trkpt>
      <trkpt lat="50.50678" lon="3.88836">
        <ele>74.64</ele>
        <time>2013-03-17T09:24:00Z</time>
      </trkpt>
      <trkpt lat="50.50677" lon="3.88835">
        <ele>75.12</ele>
        <time>2013-03-17T09:24:01Z</time>
      </trkpt>
      <trkpt lat="50.50676" lon="3.88834">
        <ele>75.12</ele>
        <time>2013-03-17T09:24:02Z</time>
      </trkpt>
      <trkpt lat="50.50675" lon="3.88832">
        <ele>74.64</ele>
        <time>2013-03-17T09:24:03Z</time>
      </trkpt>
      <trkpt lat="50.50675" lon="3.8883">
        <ele>75.12</ele>
        <time>2013-03-17T09:24:04Z</time>
      </trkpt>
      <trkpt lat="50.50664" lon="3.88801">
        <ele>76.56</ele>
        <time>2013-03-17T09:24:21Z</time>
      </trkpt>
      <trkpt lat="50.50652" lon="3.88777">
        <ele>74.64</ele>
        <time>2013-03-17T09:24:36Z</time>
      </trkpt>
      <trkpt lat="50.50627" lon="3.88756">
        <ele>74.16</ele>
        <time>2013-03-17T09:24:54Z</time>
      </trkpt>
      <trkpt lat="50.50607" lon="3.88746">
        <ele>75.6</ele>
        <time>2013-03-17T09:25:12Z</time>
      </trkpt>
      <trkpt lat="50.50584" lon="3.88737">
        <ele>76.08</ele>
        <time>2013-03-17T09:25:28Z</time>
      </trkpt>
      <trkpt lat="50.50563" lon="3.88728">
        <ele>75.6</ele>
        <time>2013-03-17T09:25:42Z</time>
      </trkpt>
      <trkpt lat="50.50543" lon="3.88723">
        <ele>76.08</ele>
        <time>2013-03-17T09:25:51Z</time>
      </trkpt>
      <trkpt lat="50.50521" lon="3.88711">
        <ele>76.56</ele>
        <time>2013-03-17T09:26:09Z</time>
      </trkpt>
      <trkpt lat="50.50501" lon="3.88706">
        <ele>76.56</ele>
        <time>2013-03-17T09:26:26Z</time>
      </trkpt>
      <trkpt lat="50.50478" lon="3.887">
        <ele>76.08</ele>
        <time>2013-03-17T09:26:44Z</time>
      </trkpt>
      <trkpt lat="50.50473" lon="3.88701">
        <ele>76.56</ele>
        <time>2013-03-17T09:27:08Z</time>
      </trkpt>
      <trkpt lat="50.50471" lon="3.88698">
        <ele>76.56</ele>
        <time>2013-03-17T09:27:13Z</time>
      </trkpt>
      <trkpt lat="50.50468" lon="3.88698">
        <ele>76.56</ele>
        <time>2013-03-17T09:27:20Z</time>
      </trkpt>
      <trkpt lat="50.50465" lon="3.88706">
        <ele>76.08</ele>
        <time>2013-03-17T09:27:26Z</time>
      </trkpt>
      <trkpt lat="50.50465" lon="3.88708">
        <ele>76.56</ele>
        <time>2013-03-17T09:27:27Z</time>
      </trkpt>
      <trkpt lat="50.50465" lon="3.8871">
        <ele>76.08</ele>
        <time>2013-03-17T09:27:28Z</time>
      </trkpt>
      <trkpt lat="50.50465" lon="3.88711">
        <ele>76.08</ele>
        <time>2013-03-17T09:27:29Z</time>
      </trkpt>
      <trkpt lat="50.50452" lon="3.88729">
        <ele>75.12</ele>
        <time>2013-03-17T09:27:43Z</time>
      </trkpt>
      <trkpt lat="50.5045" lon="3.88734">
        <ele>74.64</ele>
        <time>2013-03-17T09:27:46Z</time>
      </trkpt>
      <trkpt lat="50.50443" lon="3.88757">
        <ele>73.68</ele>
        <time>2013-03-17T09:27:57Z</time>
      </trkpt>
      <trkpt lat="50.50442" lon="3.88761">
        <ele>73.68</ele>
        <time>2013-03-17T09:28:00Z</time>
      </trkpt>
      <trkpt lat="50.5044" lon="3.88763">
        <ele>73.2</ele>
        <time>2013-03-17T09:28:01Z</time>
      </trkpt>
      <trkpt lat="50.50427" lon="3.88787">
        <ele>72.72</ele>
        <time>2013-03-17T09:28:15Z</time>
      </trkpt>
      <trkpt lat="50.50416" lon="3.88804">
        <ele>72.72</ele>
        <time>2013-03-17T09:28:27Z</time>
      </trkpt>
      <trkpt lat="50.50405" lon="3.88823">
        <ele>72.72</ele>
        <time>2013-03-17T09:28:44Z</time>
      </trkpt>
      <trkpt lat="50.50387" lon="3.88843">
        <ele>73.2</ele>
        <time>2013-03-17T09:28:59Z</time>
      </trkpt>
      <trkpt lat="50.50385" lon="3.88845">
        <ele>72.72</ele>
        <time>2013-03-17T09:29:03Z</time>
      </trkpt>
      <trkpt lat="50.50384" lon="3.88847">
        <ele>73.2</ele>
        <time>2013-03-17T09:29:04Z</time>
      </trkpt>
      <trkpt lat="50.50384" lon="3.88849">
        <ele>73.2</ele>
        <time>2013-03-17T09:29:05Z</time>
      </trkpt>
      <trkpt lat="50.50383" lon="3.88851">
        <ele>73.2</ele>
        <time>2013-03-17T09:29:06Z</time>
      </trkpt>
      <trkpt lat="50.50382" lon="3.88853">
        <ele>72.72</ele>
        <time>2013-03-17T09:29:07Z</time>
      </trkpt>
      <trkpt lat="50.50381" lon="3.88854">
        <ele>72.72</ele>
        <time>2013-03-17T09:29:08Z</time>
      </trkpt>
      <trkpt lat="50.5038" lon="3.88854">
        <ele>73.2</ele>
        <time>2013-03-17T09:29:09Z</time>
      </trkpt>
      <trkpt lat="50.50379" lon="3.88855">
        <ele>73.2</ele>
        <time>2013-03-17T09:29:10Z</time>
      </trkpt>
      <trkpt lat="50.50378" lon="3.88856">
        <ele>73.2</ele>
        <time>2013-03-17T09:29:11Z</time>
      </trkpt>
      <trkpt lat="50.50372" lon="3.88861">
        <ele>73.2</ele>
        <time>2013-03-17T09:29:18Z</time>
      </trkpt>
      <trkpt lat="50.50362" lon="3.88882">
        <ele>74.16</ele>
        <time>2013-03-17T09:29:30Z</time>
      </trkpt>
      <trkpt lat="50.50357" lon="3.88889">
        <ele>74.64</ele>
        <time>2013-03-17T09:29:35Z</time>
      </trkpt>
      <trkpt lat="50.50341" lon="3.88908">
        <ele>75.12</ele>
        <time>2013-03-17T09:29:50Z</time>
      </trkpt>
      <trkpt lat="50.50329" lon="3.88937">
        <ele>76.08</ele>
        <time>2013-03-17T09:30:04Z</time>
      </trkpt>
      <trkpt lat="50.50323" lon="3.88947">
        <ele>77.04</ele>
        <time>2013-03-17T09:30:10Z</time>
      </trkpt>
      <trkpt lat="50.50322" lon="3.88948">
        <ele>77.04</ele>
        <time>2013-03-17T09:30:11Z</time>
      </trkpt>
      <trkpt lat="50.50321" lon="3.8895">
        <ele>77.04</ele>
        <time>2013-03-17T09:30:12Z</time>
      </trkpt>
      <trkpt lat="50.50318" lon="3.88959">
        <ele>77.52</ele>
        <time>2013-03-17T09:30:17Z</time>
      </trkpt>
      <trkpt lat="50.50306" lon="3.88983">
        <ele>78.48</ele>
        <time>2013-03-17T09:30:30Z</time>
      </trkpt>
      <trkpt lat="50.50299" lon="3.89006">
        <ele>79.45</ele>
        <time>2013-03-17T09:30:44Z</time>
      </trkpt>
      <trkpt lat="50.50289" lon="3.89026">
        <ele>80.41</ele>
        <time>2013-03-17T09:30:58Z</time>
      </trkpt>
      <trkpt lat="50.50276" lon="3.89045">
        <ele>81.85</ele>
        <time>2013-03-17T09:31:14Z</time>
      </trkpt>
      <trkpt lat="50.50257" lon="3.89064">
        <ele>82.81</ele>
        <time>2013-03-17T09:31:30Z</time>
      </trkpt>
      <trkpt lat="50.50254" lon="3.89066">
        <ele>83.77</ele>
        <time>2013-03-17T09:31:33Z</time>
      </trkpt>
      <trkpt lat="50.5025" lon="3.8907">
        <ele>83.77</ele>
        <time>2013-03-17T09:31:37Z</time>
      </trkpt>
      <trkpt lat="50.50226" lon="3.89082">
        <ele>84.73</ele>
        <time>2013-03-17T09:31:53Z</time>
      </trkpt>
      <trkpt lat="50.502" lon="3.89094">
        <ele>86.66</ele>
        <time>2013-03-17T09:32:10Z</time>
      </trkpt>
      <trkpt lat="50.50164" lon="3.8912">
        <ele>87.62</ele>
        <time>2013-03-17T09:32:30Z</time>
      </trkpt>
      <trkpt lat="50.50157" lon="3.89125">
        <ele>88.58</ele>
        <time>2013-03-17T09:32:36Z</time>
      </trkpt>
      <trkpt lat="50.50156" lon="3.89126">
        <ele>88.58</ele>
        <time>2013-03-17T09:32:37Z</time>
      </trkpt>
      <trkpt lat="50.50148" lon="3.89144">
        <ele>88.58</ele>
        <time>2013-03-17T09:32:49Z</time>
      </trkpt>
      <trkpt lat="50.50138" lon="3.8916">
        <ele>89.06</ele>
        <time>2013-03-17T09:32:58Z</time>
      </trkpt>
      <trkpt lat="50.50136" lon="3.89162">
        <ele>89.06</ele>
        <time>2013-03-17T09:32:59Z</time>
      </trkpt>
      <trkpt lat="50.5013" lon="3.8917">
        <ele>90.02</ele>
        <time>2013-03-17T09:33:04Z</time>
      </trkpt>
      <trkpt lat="50.50123" lon="3.8918">
        <ele>90.02</ele>
        <time>2013-03-17T09:33:10Z</time>
      </trkpt>
      <trkpt lat="50.50119" lon="3.89188">
        <ele>90.02</ele>
        <time>2013-03-17T09:33:14Z</time>
      </trkpt>
      <trkpt lat="50.50118" lon="3.8919">
        <ele>90.02</ele>
        <time>2013-03-17T09:33:15Z</time>
      </trkpt>
      <trkpt lat="50.50117" lon="3.89192">
        <ele>90.02</ele>
        <time>2013-03-17T09:33:16Z</time>
      </trkpt>
      <trkpt lat="50.50117" lon="3.89193">
        <ele>90.5</ele>
        <time>2013-03-17T09:33:17Z</time>
      </trkpt>
      <trkpt lat="50.50116" lon="3.89195">
        <ele>90.5</ele>
        <time>2013-03-17T09:33:18Z</time>
      </trkpt>
      <trkpt lat="50.50108" lon="3.89221">
        <ele>92.42</ele>
        <time>2013-03-17T09:33:32Z</time>
      </trkpt>
      <trkpt lat="50.50107" lon="3.89224">
        <ele>91.94</ele>
        <time>2013-03-17T09:33:33Z</time>
      </trkpt>
      <trkpt lat="50.50099" lon="3.89249">
        <ele>92.9</ele>
        <time>2013-03-17T09:33:43Z</time>
      </trkpt>
      <trkpt lat="50.50092" lon="3.89275">
        <ele>92.9</ele>
        <time>2013-03-17T09:33:56Z</time>
      </trkpt>
      <trkpt lat="50.50092" lon="3.89276">
        <ele>93.39</ele>
        <time>2013-03-17T09:33:57Z</time>
      </trkpt>
      <trkpt lat="50.50091" lon="3.89278">
        <ele>93.39</ele>
        <time>2013-03-17T09:33:58Z</time>
      </trkpt>
      <trkpt lat="50.5009" lon="3.89282">
        <ele>93.39</ele>
        <time>2013-03-17T09:34:00Z</time>
      </trkpt>
      <trkpt lat="50.50088" lon="3.89286">
        <ele>93.39</ele>
        <time>2013-03-17T09:34:02Z</time>
      </trkpt>
      <trkpt lat="50.50088" lon="3.89288">
        <ele>92.9</ele>
        <time>2013-03-17T09:34:03Z</time>
      </trkpt>
      <trkpt lat="50.50083" lon="3.89308">
        <ele>93.39</ele>
        <time>2013-03-17T09:34:13Z</time>
      </trkpt>
      <trkpt lat="50.50082" lon="3.8931">
        <ele>93.87</ele>
        <time>2013-03-17T09:34:14Z</time>
      </trkpt>
      <trkpt lat="50.50082" lon="3.89312">
        <ele>93.87</ele>
        <time>2013-03-17T09:34:15Z</time>
      </trkpt>
      <trkpt lat="50.50077" lon="3.89333">
        <ele>94.35</ele>
        <time>2013-03-17T09:34:26Z</time>
      </trkpt>
      <trkpt lat="50.50076" lon="3.89335">
        <ele>94.83</ele>
        <time>2013-03-17T09:34:27Z</time>
      </trkpt>
      <trkpt lat="50.50069" lon="3.89362">
        <ele>94.83</ele>
        <time>2013-03-17T09:34:41Z</time>
      </trkpt>
      <trkpt lat="50.50066" lon="3.8938">
        <ele>94.83</ele>
        <time>2013-03-17T09:34:49Z</time>
      </trkpt>
      <trkpt lat="50.50061" lon="3.89411">
        <ele>94.35</ele>
        <time>2013-03-17T09:35:02Z</time>
      </trkpt>
      <trkpt lat="50.50057" lon="3.89443">
        <ele>95.31</ele>
        <time>2013-03-17T09:35:18Z</time>
      </trkpt>
      <trkpt lat="50.5005" lon="3.89464">
        <ele>94.83</ele>
        <time>2013-03-17T09:35:30Z</time>
      </trkpt>
      <trkpt lat="50.5004" lon="3.89491">
        <ele>95.31</ele>
        <time>2013-03-17T09:35:44Z</time>
      </trkpt>
      <trkpt lat="50.5004" lon="3.89493">
        <ele>95.31</ele>
        <time>2013-03-17T09:35:45Z</time>
      </trkpt>
      <trkpt lat="50.5003" lon="3.89516">
        <ele>95.31</ele>
        <time>2013-03-17T09:36:00Z</time>
      </trkpt>
      <trkpt lat="50.50029" lon="3.89541">
        <ele>94.83</ele>
        <time>2013-03-17T09:36:14Z</time>
      </trkpt>
      <trkpt lat="50.50025" lon="3.89568">
        <ele>94.35</ele>
        <time>2013-03-17T09:36:29Z</time>
      </trkpt>
      <trkpt lat="50.50022" lon="3.89596">
        <ele>93.87</ele>
        <time>2013-03-17T09:36:46Z</time>
      </trkpt>
      <trkpt lat="50.50017" lon="3.89618">
        <ele>92.9</ele>
        <time>2013-03-17T09:37:02Z</time>
      </trkpt>
      <trkpt lat="50.50012" lon="3.89638">
        <ele>92.9</ele>
        <time>2013-03-17T09:37:14Z</time>
      </trkpt>
      <trkpt lat="50.50006" lon="3.89674">
        <ele>91.94</ele>
        <time>2013-03-17T09:37:30Z</time>
      </trkpt>
      <trkpt lat="50.49998" lon="3.89703">
        <ele>92.42</ele>
        <time>2013-03-17T09:37:44Z</time>
      </trkpt>
      <trkpt lat="50.4999" lon="3.89719">
        <ele>91.94</ele>
        <time>2013-03-17T09:37:53Z</time>
      </trkpt>
      <trkpt lat="50.49989" lon="3.89721">
        <ele>92.42</ele>
        <time>2013-03-17T09:37:54Z</time>
      </trkpt>
      <trkpt lat="50.49984" lon="3.89744">
        <ele>91.94</ele>
        <time>2013-03-17T09:38:08Z</time>
      </trkpt>
      <trkpt lat="50.49979" lon="3.89774">
        <ele>91.94</ele>
        <time>2013-03-17T09:38:22Z</time>
      </trkpt>
      <trkpt lat="50.49974" lon="3.89791">
        <ele>91.46</ele>
        <time>2013-03-17T09:38:32Z</time>
      </trkpt>
      <trkpt lat="50.49974" lon="3.89794">
        <ele>91.46</ele>
        <time>2013-03-17T09:38:33Z</time>
      </trkpt>
      <trkpt lat="50.49974" lon="3.89806">
        <ele>91.46</ele>
        <time>2013-03-17T09:38:39Z</time>
      </trkpt>
      <trkpt lat="50.49973" lon="3.89808">
        <ele>91.46</ele>
        <time>2013-03-17T09:38:40Z</time>
      </trkpt>
      <trkpt lat="50.49966" lon="3.89837">
        <ele>90.98</ele>
        <time>2013-03-17T09:38:53Z</time>
      </trkpt>
      <trkpt lat="50.49964" lon="3.89866">
        <ele>90.5</ele>
        <time>2013-03-17T09:39:06Z</time>
      </trkpt>
      <trkpt lat="50.49956" lon="3.89908">
        <ele>90.98</ele>
        <time>2013-03-17T09:39:22Z</time>
      </trkpt>
      <trkpt lat="50.4995" lon="3.89934">
        <ele>90.5</ele>
        <time>2013-03-17T09:39:34Z</time>
      </trkpt>
      <trkpt lat="50.49946" lon="3.89942">
        <ele>90.5</ele>
        <time>2013-03-17T09:39:38Z</time>
      </trkpt>
      <trkpt lat="50.49945" lon="3.89944">
        <ele>90.5</ele>
        <time>2013-03-17T09:39:39Z</time>
      </trkpt>
      <trkpt lat="50.49944" lon="3.89945">
        <ele>90.5</ele>
        <time>2013-03-17T09:39:40Z</time>
      </trkpt>
      <trkpt lat="50.49943" lon="3.89946">
        <ele>90.02</ele>
        <time>2013-03-17T09:39:41Z</time>
      </trkpt>
      <trkpt lat="50.49942" lon="3.89947">
        <ele>90.02</ele>
        <time>2013-03-17T09:39:42Z</time>
      </trkpt>
      <trkpt lat="50.4993" lon="3.89959">
        <ele>89.54</ele>
        <time>2013-03-17T09:39:56Z</time>
      </trkpt>
      <trkpt lat="50.4993" lon="3.8996">
        <ele>89.54</ele>
        <time>2013-03-17T09:39:58Z</time>
      </trkpt>
      <trkpt lat="50.4993" lon="3.89961">
        <ele>89.06</ele>
        <time>2013-03-17T09:39:59Z</time>
      </trkpt>
      <trkpt lat="50.49933" lon="3.89964">
        <ele>90.02</ele>
        <time>2013-03-17T09:40:09Z</time>
      </trkpt>
      <trkpt lat="50.49931" lon="3.89963">
        <ele>89.54</ele>
        <time>2013-03-17T09:40:12Z</time>
      </trkpt>
      <trkpt lat="50.4993" lon="3.89963">
        <ele>89.54</ele>
        <time>2013-03-17T09:40:13Z</time>
      </trkpt>
      <trkpt lat="50.49925" lon="3.89963">
        <ele>89.54</ele>
        <time>2013-03-17T09:40:19Z</time>
      </trkpt>
      <trkpt lat="50.49918" lon="3.89968">
        <ele>89.54</ele>
        <time>2013-03-17T09:40:30Z</time>
      </trkpt>
      <trkpt lat="50.49911" lon="3.89982">
        <ele>89.54</ele>
        <time>2013-03-17T09:40:40Z</time>
      </trkpt>
      <trkpt lat="50.49906" lon="3.89998">
        <ele>90.02</ele>
        <time>2013-03-17T09:40:50Z</time>
      </trkpt>
      <trkpt lat="50.49905" lon="3.90004">
        <ele>90.02</ele>
        <time>2013-03-17T09:40:54Z</time>
      </trkpt>
      <trkpt lat="50.49903" lon="3.90015">
        <ele>90.02</ele>
        <time>2013-03-17T09:41:00Z</time>
      </trkpt>
      <trkpt lat="50.49901" lon="3.9003">
        <ele>90.5</ele>
        <time>2013-03-17T09:41:12Z</time>
      </trkpt>
      <trkpt lat="50.49898" lon="3.90044">
        <ele>89.54</ele>
        <time>2013-03-17T09:41:29Z</time>
      </trkpt>
      <trkpt lat="50.49897" lon="3.90047">
        <ele>89.54</ele>
        <time>2013-03-17T09:41:30Z</time>
      </trkpt>
      <trkpt lat="50.49891" lon="3.90064">
        <ele>89.06</ele>
        <time>2013-03-17T09:41:35Z</time>
      </trkpt>
      <trkpt lat="50.49878" lon="3.90085">
        <ele>88.1</ele>
        <time>2013-03-17T09:41:48Z</time>
      </trkpt>
      <trkpt lat="50.49866" lon="3.90107">
        <ele>88.58</ele>
        <time>2013-03-17T09:42:00Z</time>
      </trkpt>
      <trkpt lat="50.49864" lon="3.90106">
        <ele>89.54</ele>
        <time>2013-03-17T09:42:03Z</time>
      </trkpt>
      <trkpt lat="50.49851" lon="3.90119">
        <ele>88.58</ele>
        <time>2013-03-17T09:42:19Z</time>
      </trkpt>
      <trkpt lat="50.49845" lon="3.90125">
        <ele>88.58</ele>
        <time>2013-03-17T09:42:35Z</time>
      </trkpt>
      <trkpt lat="50.49839" lon="3.90126">
        <ele>88.1</ele>
        <time>2013-03-17T09:42:46Z</time>
      </trkpt>
      <trkpt lat="50.49824" lon="3.90133">
        <ele>88.58</ele>
        <time>2013-03-17T09:43:00Z</time>
      </trkpt>
      <trkpt lat="50.49806" lon="3.90136">
        <ele>89.06</ele>
        <time>2013-03-17T09:43:15Z</time>
      </trkpt>
      <trkpt lat="50.4978" lon="3.90143">
        <ele>89.54</ele>
        <time>2013-03-17T09:43:31Z</time>
      </trkpt>
      <trkpt lat="50.49755" lon="3.90144">
        <ele>90.5</ele>
        <time>2013-03-17T09:43:49Z</time>
      </trkpt>
      <trkpt lat="50.49732" lon="3.90148">
        <ele>90.98</ele>
        <time>2013-03-17T09:44:04Z</time>
      </trkpt>
      <trkpt lat="50.49723" lon="3.90153">
        <ele>90.5</ele>
        <time>2013-03-17T09:44:13Z</time>
      </trkpt>
      <trkpt lat="50.49718" lon="3.90152">
        <ele>90.5</ele>
        <time>2013-03-17T09:44:16Z</time>
      </trkpt>
      <trkpt lat="50.49693" lon="3.90156">
        <ele>90.02</ele>
        <time>2013-03-17T09:44:31Z</time>
      </trkpt>
      <trkpt lat="50.49678" lon="3.90164">
        <ele>90.02</ele>
        <time>2013-03-17T09:44:45Z</time>
      </trkpt>
      <trkpt lat="50.49657" lon="3.9017">
        <ele>90.02</ele>
        <time>2013-03-17T09:44:59Z</time>
      </trkpt>
      <trkpt lat="50.49653" lon="3.90171">
        <ele>89.54</ele>
        <time>2013-03-17T09:45:02Z</time>
      </trkpt>
      <trkpt lat="50.49634" lon="3.90176">
        <ele>89.06</ele>
        <time>2013-03-17T09:45:15Z</time>
      </trkpt>
      <trkpt lat="50.49612" lon="3.90179">
        <ele>89.06</ele>
        <time>2013-03-17T09:45:30Z</time>
      </trkpt>
      <trkpt lat="50.49586" lon="3.90179">
        <ele>88.1</ele>
        <time>2013-03-17T09:45:45Z</time>
      </trkpt>
      <trkpt lat="50.49576" lon="3.90183">
        <ele>87.62</ele>
        <time>2013-03-17T09:45:53Z</time>
      </trkpt>
      <trkpt lat="50.49574" lon="3.90184">
        <ele>87.62</ele>
        <time>2013-03-17T09:45:54Z</time>
      </trkpt>
      <trkpt lat="50.49565" lon="3.90187">
        <ele>87.14</ele>
        <time>2013-03-17T09:46:02Z</time>
      </trkpt>
      <trkpt lat="50.49563" lon="3.90188">
        <ele>86.66</ele>
        <time>2013-03-17T09:46:03Z</time>
      </trkpt>
      <trkpt lat="50.49561" lon="3.90188">
        <ele>86.66</ele>
        <time>2013-03-17T09:46:04Z</time>
      </trkpt>
      <trkpt lat="50.49549" lon="3.90186">
        <ele>86.18</ele>
        <time>2013-03-17T09:46:12Z</time>
      </trkpt>
      <trkpt lat="50.49531" lon="3.90181">
        <ele>84.73</ele>
        <time>2013-03-17T09:46:28Z</time>
      </trkpt>
      <trkpt lat="50.49525" lon="3.90183">
        <ele>84.25</ele>
        <time>2013-03-17T09:46:34Z</time>
      </trkpt>
      <trkpt lat="50.49522" lon="3.90182">
        <ele>84.73</ele>
        <time>2013-03-17T09:46:36Z</time>
      </trkpt>
      <trkpt lat="50.4951" lon="3.90179">
        <ele>83.29</ele>
        <time>2013-03-17T09:46:48Z</time>
      </trkpt>
      <trkpt lat="50.49493" lon="3.9018">
        <ele>82.33</ele>
        <time>2013-03-17T09:46:59Z</time>
      </trkpt>
      <trkpt lat="50.49481" lon="3.90187">
        <ele>81.37</ele>
        <time>2013-03-17T09:47:07Z</time>
      </trkpt>
      <trkpt lat="50.49479" lon="3.90189">
        <ele>81.85</ele>
        <time>2013-03-17T09:47:08Z</time>
      </trkpt>
      <trkpt lat="50.49451" lon="3.9019">
        <ele>80.89</ele>
        <time>2013-03-17T09:47:21Z</time>
      </trkpt>
      <trkpt lat="50.49431" lon="3.90202">
        <ele>77.04</ele>
        <time>2013-03-17T09:47:36Z</time>
      </trkpt>
      <trkpt lat="50.4943" lon="3.90203">
        <ele>87.14</ele>
        <time>2013-03-17T09:47:37Z</time>
      </trkpt>
      <trkpt lat="50.49429" lon="3.90204">
        <ele>81.85</ele>
        <time>2013-03-17T09:47:38Z</time>
      </trkpt>
      <trkpt lat="50.49423" lon="3.90211">
        <ele>77.52</ele>
        <time>2013-03-17T09:47:49Z</time>
      </trkpt>
      <trkpt lat="50.49421" lon="3.90213">
        <ele>84.25</ele>
        <time>2013-03-17T09:47:50Z</time>
      </trkpt>
      <trkpt lat="50.4942" lon="3.90215">
        <ele>80.41</ele>
        <time>2013-03-17T09:47:52Z</time>
      </trkpt>
      <trkpt lat="50.49406" lon="3.90237">
        <ele>80.41</ele>
        <time>2013-03-17T09:48:01Z</time>
      </trkpt>
      <trkpt lat="50.49403" lon="3.90244">
        <ele>77.04</ele>
        <time>2013-03-17T09:48:08Z</time>
      </trkpt>
      <trkpt lat="50.49398" lon="3.90253">
        <ele>82.33</ele>
        <time>2013-03-17T09:48:09Z</time>
      </trkpt>
      <trkpt lat="50.49395" lon="3.90258">
        <ele>78.97</ele>
        <time>2013-03-17T09:48:10Z</time>
      </trkpt>
      <trkpt lat="50.49397" lon="3.90264">
        <ele>79.45</ele>
        <time>2013-03-17T09:48:16Z</time>
      </trkpt>
      <trkpt lat="50.49396" lon="3.90266">
        <ele>79.45</ele>
        <time>2013-03-17T09:48:18Z</time>
      </trkpt>
      <trkpt lat="50.49395" lon="3.90268">
        <ele>79.45</ele>
        <time>2013-03-17T09:48:19Z</time>
      </trkpt>
      <trkpt lat="50.49394" lon="3.90269">
        <ele>79.45</ele>
        <time>2013-03-17T09:48:20Z</time>
      </trkpt>
      <trkpt lat="50.49393" lon="3.90271">
        <ele>79.93</ele>
        <time>2013-03-17T09:48:21Z</time>
      </trkpt>
      <trkpt lat="50.49392" lon="3.90273">
        <ele>79.93</ele>
        <time>2013-03-17T09:48:22Z</time>
      </trkpt>
      <trkpt lat="50.49391" lon="3.90274">
        <ele>80.41</ele>
        <time>2013-03-17T09:48:23Z</time>
      </trkpt>
      <trkpt lat="50.4939" lon="3.90276">
        <ele>80.41</ele>
        <time>2013-03-17T09:48:24Z</time>
      </trkpt>
      <trkpt lat="50.4939" lon="3.90278">
        <ele>80.41</ele>
        <time>2013-03-17T09:48:25Z</time>
      </trkpt>
      <trkpt lat="50.4939" lon="3.90279">
        <ele>80.41</ele>
        <time>2013-03-17T09:48:26Z</time>
      </trkpt>
      <trkpt lat="50.49379" lon="3.90299">
        <ele>78.97</ele>
        <time>2013-03-17T09:48:39Z</time>
      </trkpt>
      <trkpt lat="50.49369" lon="3.90314">
        <ele>79.45</ele>
        <time>2013-03-17T09:48:53Z</time>
      </trkpt>
      <trkpt lat="50.49366" lon="3.90315">
        <ele>79.45</ele>
        <time>2013-03-17T09:48:56Z</time>
      </trkpt>
      <trkpt lat="50.49365" lon="3.90317">
        <ele>79.45</ele>
        <time>2013-03-17T09:48:57Z</time>
      </trkpt>
      <trkpt lat="50.49357" lon="3.90327">
        <ele>78.97</ele>
        <time>2013-03-17T09:49:06Z</time>
      </trkpt>
      <trkpt lat="50.49356" lon="3.90327">
        <ele>78.97</ele>
        <time>2013-03-17T09:49:07Z</time>
      </trkpt>
      <trkpt lat="50.49354" lon="3.90328">
        <ele>78.97</ele>
        <time>2013-03-17T09:49:08Z</time>
      </trkpt>
      <trkpt lat="50.49347" lon="3.90333">
        <ele>79.45</ele>
        <time>2013-03-17T09:49:13Z</time>
      </trkpt>
      <trkpt lat="50.49334" lon="3.90349">
        <ele>78.48</ele>
        <time>2013-03-17T09:49:25Z</time>
      </trkpt>
      <trkpt lat="50.49333" lon="3.90353">
        <ele>78.48</ele>
        <time>2013-03-17T09:49:27Z</time>
      </trkpt>
      <trkpt lat="50.49326" lon="3.90361">
        <ele>78.48</ele>
        <time>2013-03-17T09:49:33Z</time>
      </trkpt>
      <trkpt lat="50.49326" lon="3.90363">
        <ele>78.48</ele>
        <time>2013-03-17T09:49:34Z</time>
      </trkpt>
      <trkpt lat="50.49324" lon="3.90364">
        <ele>78.48</ele>
        <time>2013-03-17T09:49:35Z</time>
      </trkpt>
      <trkpt lat="50.49309" lon="3.9039">
        <ele>77.52</ele>
        <time>2013-03-17T09:49:52Z</time>
      </trkpt>
      <trkpt lat="50.49298" lon="3.90409">
        <ele>77.04</ele>
        <time>2013-03-17T09:50:04Z</time>
      </trkpt>
      <trkpt lat="50.49286" lon="3.90422">
        <ele>76.56</ele>
        <time>2013-03-17T09:50:15Z</time>
      </trkpt>
      <trkpt lat="50.49285" lon="3.90425">
        <ele>76.08</ele>
        <time>2013-03-17T09:50:17Z</time>
      </trkpt>
      <trkpt lat="50.49284" lon="3.90426">
        <ele>76.56</ele>
        <time>2013-03-17T09:50:18Z</time>
      </trkpt>
      <trkpt lat="50.49274" lon="3.90443">
        <ele>76.08</ele>
        <time>2013-03-17T09:50:29Z</time>
      </trkpt>
      <trkpt lat="50.49273" lon="3.90445">
        <ele>76.08</ele>
        <time>2013-03-17T09:50:30Z</time>
      </trkpt>
      <trkpt lat="50.49272" lon="3.90449">
        <ele>76.08</ele>
        <time>2013-03-17T09:50:32Z</time>
      </trkpt>
      <trkpt lat="50.49271" lon="3.90452">
        <ele>76.08</ele>
        <time>2013-03-17T09:50:33Z</time>
      </trkpt>
      <trkpt lat="50.4927" lon="3.90454">
        <ele>76.08</ele>
        <time>2013-03-17T09:50:34Z</time>
      </trkpt>
      <trkpt lat="50.4927" lon="3.90455">
        <ele>76.08</ele>
        <time>2013-03-17T09:50:35Z</time>
      </trkpt>
      <trkpt lat="50.49269" lon="3.90458">
        <ele>76.08</ele>
        <time>2013-03-17T09:50:36Z</time>
      </trkpt>
      <trkpt lat="50.49266" lon="3.90461">
        <ele>76.08</ele>
        <time>2013-03-17T09:50:38Z</time>
      </trkpt>
      <trkpt lat="50.49265" lon="3.90462">
        <ele>76.56</ele>
        <time>2013-03-17T09:50:39Z</time>
      </trkpt>
      <trkpt lat="50.49264" lon="3.90463">
        <ele>76.08</ele>
        <time>2013-03-17T09:50:40Z</time>
      </trkpt>
      <trkpt lat="50.49257" lon="3.90475">
        <ele>75.6</ele>
        <time>2013-03-17T09:50:48Z</time>
      </trkpt>
      <trkpt lat="50.49249" lon="3.90496">
        <ele>75.6</ele>
        <time>2013-03-17T09:51:00Z</time>
      </trkpt>
      <trkpt lat="50.49237" lon="3.90525">
        <ele>74.64</ele>
        <time>2013-03-17T09:51:15Z</time>
      </trkpt>
      <trkpt lat="50.49234" lon="3.90529">
        <ele>74.64</ele>
        <time>2013-03-17T09:51:17Z</time>
      </trkpt>
      <trkpt lat="50.49233" lon="3.90531">
        <ele>74.16</ele>
        <time>2013-03-17T09:51:18Z</time>
      </trkpt>
      <trkpt lat="50.49224" lon="3.90546">
        <ele>73.2</ele>
        <time>2013-03-17T09:51:28Z</time>
      </trkpt>
      <trkpt lat="50.49223" lon="3.90547">
        <ele>73.2</ele>
        <time>2013-03-17T09:51:29Z</time>
      </trkpt>
      <trkpt lat="50.49211" lon="3.90571">
        <ele>72.72</ele>
        <time>2013-03-17T09:51:43Z</time>
      </trkpt>
      <trkpt lat="50.4921" lon="3.90575">
        <ele>72.72</ele>
        <time>2013-03-17T09:51:45Z</time>
      </trkpt>
      <trkpt lat="50.49209" lon="3.90577">
        <ele>72.72</ele>
        <time>2013-03-17T09:51:46Z</time>
      </trkpt>
      <trkpt lat="50.49202" lon="3.90593">
        <ele>72.24</ele>
        <time>2013-03-17T09:51:54Z</time>
      </trkpt>
      <trkpt lat="50.49189" lon="3.90622">
        <ele>72.24</ele>
        <time>2013-03-17T09:52:09Z</time>
      </trkpt>
      <trkpt lat="50.49175" lon="3.90642">
        <ele>71.76</ele>
        <time>2013-03-17T09:52:22Z</time>
      </trkpt>
      <trkpt lat="50.49156" lon="3.9066">
        <ele>71.27</ele>
        <time>2013-03-17T09:52:40Z</time>
      </trkpt>
      <trkpt lat="50.49138" lon="3.90679">
        <ele>71.27</ele>
        <time>2013-03-17T09:52:56Z</time>
      </trkpt>
      <trkpt lat="50.49119" lon="3.90699">
        <ele>70.31</ele>
        <time>2013-03-17T09:53:10Z</time>
      </trkpt>
      <trkpt lat="50.4911" lon="3.90705">
        <ele>70.31</ele>
        <time>2013-03-17T09:53:17Z</time>
      </trkpt>
      <trkpt lat="50.4911" lon="3.90707">
        <ele>70.31</ele>
        <time>2013-03-17T09:53:18Z</time>
      </trkpt>
      <trkpt lat="50.49095" lon="3.90735">
        <ele>69.83</ele>
        <time>2013-03-17T09:53:32Z</time>
      </trkpt>
      <trkpt lat="50.49093" lon="3.90765">
        <ele>69.35</ele>
        <time>2013-03-17T09:53:44Z</time>
      </trkpt>
      <trkpt lat="50.49081" lon="3.90802">
        <ele>69.35</ele>
        <time>2013-03-17T09:54:02Z</time>
      </trkpt>
      <trkpt lat="50.49074" lon="3.90836">
        <ele>68.39</ele>
        <time>2013-03-17T09:54:18Z</time>
      </trkpt>
      <trkpt lat="50.49069" lon="3.90874">
        <ele>67.91</ele>
        <time>2013-03-17T09:54:36Z</time>
      </trkpt>
      <trkpt lat="50.49062" lon="3.90907">
        <ele>67.43</ele>
        <time>2013-03-17T09:54:52Z</time>
      </trkpt>
      <trkpt lat="50.4906" lon="3.90922">
        <ele>66.95</ele>
        <time>2013-03-17T09:54:59Z</time>
      </trkpt>
      <trkpt lat="50.49056" lon="3.90949">
        <ele>66.95</ele>
        <time>2013-03-17T09:55:12Z</time>
      </trkpt>
      <trkpt lat="50.49056" lon="3.90957">
        <ele>66.47</ele>
        <time>2013-03-17T09:55:15Z</time>
      </trkpt>
      <trkpt lat="50.4905" lon="3.90989">
        <ele>65.99</ele>
        <time>2013-03-17T09:55:31Z</time>
      </trkpt>
      <trkpt lat="50.49043" lon="3.91013">
        <ele>65.51</ele>
        <time>2013-03-17T09:55:43Z</time>
      </trkpt>
      <trkpt lat="50.49039" lon="3.91041">
        <ele>65.51</ele>
        <time>2013-03-17T09:55:59Z</time>
      </trkpt>
      <trkpt lat="50.49038" lon="3.91092">
        <ele>65.51</ele>
        <time>2013-03-17T09:56:18Z</time>
      </trkpt>
      <trkpt lat="50.49041" lon="3.91136">
        <ele>65.99</ele>
        <time>2013-03-17T09:56:36Z</time>
      </trkpt>
      <trkpt lat="50.49048" lon="3.91175">
        <ele>65.03</ele>
        <time>2013-03-17T09:56:54Z</time>
      </trkpt>
      <trkpt lat="50.49052" lon="3.91209">
        <ele>65.03</ele>
        <time>2013-03-17T09:57:13Z</time>
      </trkpt>
      <trkpt lat="50.49062" lon="3.91255">
        <ele>64.55</ele>
        <time>2013-03-17T09:57:33Z</time>
      </trkpt>
      <trkpt lat="50.49071" lon="3.91291">
        <ele>64.55</ele>
        <time>2013-03-17T09:57:49Z</time>
      </trkpt>
      <trkpt lat="50.49077" lon="3.91324">
        <ele>63.58</ele>
        <time>2013-03-17T09:58:05Z</time>
      </trkpt>
      <trkpt lat="50.49079" lon="3.91341">
        <ele>63.58</ele>
        <time>2013-03-17T09:58:16Z</time>
      </trkpt>
      <trkpt lat="50.49085" lon="3.91357">
        <ele>63.58</ele>
        <time>2013-03-17T09:58:18Z</time>
      </trkpt>
      <trkpt lat="50.4909" lon="3.91369">
        <ele>64.55</ele>
        <time>2013-03-17T09:58:23Z</time>
      </trkpt>
      <trkpt lat="50.49095" lon="3.9139">
        <ele>64.07</ele>
        <time>2013-03-17T09:58:32Z</time>
      </trkpt>
      <trkpt lat="50.49103" lon="3.9142">
        <ele>63.1</ele>
        <time>2013-03-17T09:58:44Z</time>
      </trkpt>
      <trkpt lat="50.4911" lon="3.9146">
        <ele>63.1</ele>
        <time>2013-03-17T09:59:03Z</time>
      </trkpt>
      <trkpt lat="50.49115" lon="3.91491">
        <ele>63.58</ele>
        <time>2013-03-17T09:59:19Z</time>
      </trkpt>
      <trkpt lat="50.49121" lon="3.91533">
        <ele>63.58</ele>
        <time>2013-03-17T09:59:36Z</time>
      </trkpt>
      <trkpt lat="50.49118" lon="3.91564">
        <ele>63.58</ele>
        <time>2013-03-17T09:59:51Z</time>
      </trkpt>
      <trkpt lat="50.49122" lon="3.91608">
        <ele>63.58</ele>
        <time>2013-03-17T10:00:09Z</time>
      </trkpt>
      <trkpt lat="50.49127" lon="3.91652">
        <ele>63.58</ele>
        <time>2013-03-17T10:00:27Z</time>
      </trkpt>
      <trkpt lat="50.49129" lon="3.91692">
        <ele>62.62</ele>
        <time>2013-03-17T10:00:44Z</time>
      </trkpt>
      <trkpt lat="50.49132" lon="3.9174">
        <ele>62.62</ele>
        <time>2013-03-17T10:01:03Z</time>
      </trkpt>
      <trkpt lat="50.4913" lon="3.91786">
        <ele>63.1</ele>
        <time>2013-03-17T10:01:22Z</time>
      </trkpt>
      <trkpt lat="50.49119" lon="3.91813">
        <ele>62.14</ele>
        <time>2013-03-17T10:01:36Z</time>
      </trkpt>
      <trkpt lat="50.49116" lon="3.9183">
        <ele>62.62</ele>
        <time>2013-03-17T10:01:44Z</time>
      </trkpt>
      <trkpt lat="50.49109" lon="3.91872">
        <ele>62.14</ele>
        <time>2013-03-17T10:02:03Z</time>
      </trkpt>
      <trkpt lat="50.49096" lon="3.91916">
        <ele>61.66</ele>
        <time>2013-03-17T10:02:23Z</time>
      </trkpt>
      <trkpt lat="50.49088" lon="3.9195">
        <ele>61.18</ele>
        <time>2013-03-17T10:02:39Z</time>
      </trkpt>
      <trkpt lat="50.49077" lon="3.91985">
        <ele>61.18</ele>
        <time>2013-03-17T10:02:56Z</time>
      </trkpt>
      <trkpt lat="50.49075" lon="3.91999">
        <ele>61.66</ele>
        <time>2013-03-17T10:03:02Z</time>
      </trkpt>
      <trkpt lat="50.49078" lon="3.92009">
        <ele>61.66</ele>
        <time>2013-03-17T10:03:07Z</time>
      </trkpt>
      <trkpt lat="50.49099" lon="3.92029">
        <ele>61.18</ele>
        <time>2013-03-17T10:03:24Z</time>
      </trkpt>
      <trkpt lat="50.49124" lon="3.92055">
        <ele>62.14</ele>
        <time>2013-03-17T10:03:45Z</time>
      </trkpt>
      <trkpt lat="50.4914" lon="3.92068">
        <ele>62.62</ele>
        <time>2013-03-17T10:04:00Z</time>
      </trkpt>
      <trkpt lat="50.49158" lon="3.92077">
        <ele>63.58</ele>
        <time>2013-03-17T10:04:18Z</time>
      </trkpt>
      <trkpt lat="50.49177" lon="3.92076">
        <ele>64.55</ele>
        <time>2013-03-17T10:04:32Z</time>
      </trkpt>
      <trkpt lat="50.49198" lon="3.92069">
        <ele>65.03</ele>
        <time>2013-03-17T10:04:47Z</time>
      </trkpt>
      <trkpt lat="50.49215" lon="3.92064">
        <ele>65.99</ele>
        <time>2013-03-17T10:05:02Z</time>
      </trkpt>
      <trkpt lat="50.49232" lon="3.92059">
        <ele>65.99</ele>
        <time>2013-03-17T10:05:16Z</time>
      </trkpt>
      <trkpt lat="50.49242" lon="3.92054">
        <ele>66.47</ele>
        <time>2013-03-17T10:05:26Z</time>
      </trkpt>
      <trkpt lat="50.49256" lon="3.92049">
        <ele>65.99</ele>
        <time>2013-03-17T10:05:39Z</time>
      </trkpt>
      <trkpt lat="50.4926" lon="3.92047">
        <ele>66.47</ele>
        <time>2013-03-17T10:05:42Z</time>
      </trkpt>
      <trkpt lat="50.49267" lon="3.92046">
        <ele>66.47</ele>
        <time>2013-03-17T10:05:48Z</time>
      </trkpt>
      <trkpt lat="50.49274" lon="3.92047">
        <ele>67.43</ele>
        <time>2013-03-17T10:05:57Z</time>
      </trkpt>
      <trkpt lat="50.49279" lon="3.92053">
        <ele>67.43</ele>
        <time>2013-03-17T10:06:03Z</time>
      </trkpt>
      <trkpt lat="50.49285" lon="3.92054">
        <ele>67.43</ele>
        <time>2013-03-17T10:06:07Z</time>
      </trkpt>
      <trkpt lat="50.4931" lon="3.92061">
        <ele>67.91</ele>
        <time>2013-03-17T10:06:24Z</time>
      </trkpt>
      <trkpt lat="50.49331" lon="3.92074">
        <ele>68.87</ele>
        <time>2013-03-17T10:06:40Z</time>
      </trkpt>
      <trkpt lat="50.49349" lon="3.92088">
        <ele>71.27</ele>
        <time>2013-03-17T10:06:54Z</time>
      </trkpt>
      <trkpt lat="50.49369" lon="3.92104">
        <ele>71.76</ele>
        <time>2013-03-17T10:07:10Z</time>
      </trkpt>
      <trkpt lat="50.4939" lon="3.92116">
        <ele>73.68</ele>
        <time>2013-03-17T10:07:25Z</time>
      </trkpt>
      <trkpt lat="50.49414" lon="3.92125">
        <ele>74.64</ele>
        <time>2013-03-17T10:07:40Z</time>
      </trkpt>
      <trkpt lat="50.4943" lon="3.92133">
        <ele>75.12</ele>
        <time>2013-03-17T10:07:53Z</time>
      </trkpt>
      <trkpt lat="50.49446" lon="3.92147">
        <ele>76.08</ele>
        <time>2013-03-17T10:08:07Z</time>
      </trkpt>
      <trkpt lat="50.49461" lon="3.92157">
        <ele>76.56</ele>
        <time>2013-03-17T10:08:19Z</time>
      </trkpt>
      <trkpt lat="50.49478" lon="3.92171">
        <ele>77.52</ele>
        <time>2013-03-17T10:08:32Z</time>
      </trkpt>
      <trkpt lat="50.49497" lon="3.92185">
        <ele>78.48</ele>
        <time>2013-03-17T10:08:47Z</time>
      </trkpt>
      <trkpt lat="50.4951" lon="3.92199">
        <ele>78.48</ele>
        <time>2013-03-17T10:08:58Z</time>
      </trkpt>
      <trkpt lat="50.49518" lon="3.92207">
        <ele>78.48</ele>
        <time>2013-03-17T10:09:04Z</time>
      </trkpt>
      <trkpt lat="50.49535" lon="3.92223">
        <ele>78</ele>
        <time>2013-03-17T10:09:18Z</time>
      </trkpt>
      <trkpt lat="50.49549" lon="3.92231">
        <ele>79.45</ele>
        <time>2013-03-17T10:09:30Z</time>
      </trkpt>
      <trkpt lat="50.49567" lon="3.92239">
        <ele>79.93</ele>
        <time>2013-03-17T10:09:44Z</time>
      </trkpt>
      <trkpt lat="50.49584" lon="3.92249">
        <ele>80.41</ele>
        <time>2013-03-17T10:09:57Z</time>
      </trkpt>
      <trkpt lat="50.496" lon="3.9226">
        <ele>80.89</ele>
        <time>2013-03-17T10:10:09Z</time>
      </trkpt>
      <trkpt lat="50.49609" lon="3.92267">
        <ele>81.37</ele>
        <time>2013-03-17T10:10:16Z</time>
      </trkpt>
      <trkpt lat="50.49622" lon="3.92277">
        <ele>82.33</ele>
        <time>2013-03-17T10:10:26Z</time>
      </trkpt>
      <trkpt lat="50.49631" lon="3.92281">
        <ele>82.33</ele>
        <time>2013-03-17T10:10:33Z</time>
      </trkpt>
      <trkpt lat="50.49653" lon="3.92297">
        <ele>84.25</ele>
        <time>2013-03-17T10:10:50Z</time>
      </trkpt>
      <trkpt lat="50.49661" lon="3.92303">
        <ele>84.25</ele>
        <time>2013-03-17T10:11:01Z</time>
      </trkpt>
      <trkpt lat="50.49674" lon="3.92315">
        <ele>84.73</ele>
        <time>2013-03-17T10:11:17Z</time>
      </trkpt>
      <trkpt lat="50.49677" lon="3.92316">
        <ele>85.21</ele>
        <time>2013-03-17T10:11:20Z</time>
      </trkpt>
      <trkpt lat="50.49691" lon="3.92325">
        <ele>86.66</ele>
        <time>2013-03-17T10:11:33Z</time>
      </trkpt>
      <trkpt lat="50.49704" lon="3.92338">
        <ele>87.14</ele>
        <time>2013-03-17T10:11:48Z</time>
      </trkpt>
      <trkpt lat="50.49738" lon="3.92366">
        <ele>88.58</ele>
        <time>2013-03-17T10:12:05Z</time>
      </trkpt>
      <trkpt lat="50.49761" lon="3.92383">
        <ele>89.54</ele>
        <time>2013-03-17T10:12:21Z</time>
      </trkpt>
      <trkpt lat="50.49783" lon="3.92397">
        <ele>90.5</ele>
        <time>2013-03-17T10:12:36Z</time>
      </trkpt>
      <trkpt lat="50.49803" lon="3.92413">
        <ele>91.46</ele>
        <time>2013-03-17T10:12:51Z</time>
      </trkpt>
      <trkpt lat="50.49819" lon="3.92428">
        <ele>92.42</ele>
        <time>2013-03-17T10:13:05Z</time>
      </trkpt>
      <trkpt lat="50.49823" lon="3.9243">
        <ele>92.9</ele>
        <time>2013-03-17T10:13:08Z</time>
      </trkpt>
      <trkpt lat="50.49838" lon="3.92436">
        <ele>93.39</ele>
        <time>2013-03-17T10:13:22Z</time>
      </trkpt>
      <trkpt lat="50.49855" lon="3.92448">
        <ele>93.87</ele>
        <time>2013-03-17T10:13:36Z</time>
      </trkpt>
      <trkpt lat="50.4987" lon="3.92463">
        <ele>94.35</ele>
        <time>2013-03-17T10:13:46Z</time>
      </trkpt>
      <trkpt lat="50.49895" lon="3.92479">
        <ele>94.83</ele>
        <time>2013-03-17T10:14:01Z</time>
      </trkpt>
      <trkpt lat="50.49917" lon="3.92496">
        <ele>95.31</ele>
        <time>2013-03-17T10:14:15Z</time>
      </trkpt>
      <trkpt lat="50.49935" lon="3.92504">
        <ele>96.27</ele>
        <time>2013-03-17T10:14:28Z</time>
      </trkpt>
      <trkpt lat="50.49955" lon="3.9252">
        <ele>97.23</ele>
        <time>2013-03-17T10:14:43Z</time>
      </trkpt>
      <trkpt lat="50.49971" lon="3.92529">
        <ele>97.71</ele>
        <time>2013-03-17T10:14:58Z</time>
      </trkpt>
      <trkpt lat="50.49974" lon="3.92531">
        <ele>98.19</ele>
        <time>2013-03-17T10:15:01Z</time>
      </trkpt>
      <trkpt lat="50.50001" lon="3.92551">
        <ele>100.11</ele>
        <time>2013-03-17T10:15:18Z</time>
      </trkpt>
      <trkpt lat="50.50018" lon="3.92564">
        <ele>101.56</ele>
        <time>2013-03-17T10:15:32Z</time>
      </trkpt>
      <trkpt lat="50.50031" lon="3.92572">
        <ele>103</ele>
        <time>2013-03-17T10:15:44Z</time>
      </trkpt>
      <trkpt lat="50.50051" lon="3.92582">
        <ele>103.96</ele>
        <time>2013-03-17T10:15:59Z</time>
      </trkpt>
      <trkpt lat="50.50071" lon="3.92598">
        <ele>105.88</ele>
        <time>2013-03-17T10:16:15Z</time>
      </trkpt>
      <trkpt lat="50.50088" lon="3.92613">
        <ele>107.32</ele>
        <time>2013-03-17T10:16:30Z</time>
      </trkpt>
      <trkpt lat="50.50107" lon="3.92629">
        <ele>107.81</ele>
        <time>2013-03-17T10:16:44Z</time>
      </trkpt>
      <trkpt lat="50.50124" lon="3.92643">
        <ele>108.29</ele>
        <time>2013-03-17T10:16:57Z</time>
      </trkpt>
      <trkpt lat="50.50138" lon="3.92653">
        <ele>109.25</ele>
        <time>2013-03-17T10:17:11Z</time>
      </trkpt>
      <trkpt lat="50.50156" lon="3.9266">
        <ele>109.73</ele>
        <time>2013-03-17T10:17:26Z</time>
      </trkpt>
      <trkpt lat="50.50169" lon="3.92665">
        <ele>109.73</ele>
        <time>2013-03-17T10:17:39Z</time>
      </trkpt>
      <trkpt lat="50.50194" lon="3.92674">
        <ele>109.25</ele>
        <time>2013-03-17T10:17:54Z</time>
      </trkpt>
      <trkpt lat="50.50207" lon="3.92682">
        <ele>110.21</ele>
        <time>2013-03-17T10:18:07Z</time>
      </trkpt>
      <trkpt lat="50.50223" lon="3.9269">
        <ele>109.73</ele>
        <time>2013-03-17T10:18:21Z</time>
      </trkpt>
      <trkpt lat="50.50227" lon="3.92693">
        <ele>110.21</ele>
        <time>2013-03-17T10:18:24Z</time>
      </trkpt>
      <trkpt lat="50.50248" lon="3.92704">
        <ele>110.21</ele>
        <time>2013-03-17T10:18:40Z</time>
      </trkpt>
      <trkpt lat="50.50262" lon="3.92716">
        <ele>110.21</ele>
        <time>2013-03-17T10:18:53Z</time>
      </trkpt>
      <trkpt lat="50.50282" lon="3.92728">
        <ele>110.21</ele>
        <time>2013-03-17T10:19:07Z</time>
      </trkpt>
      <trkpt lat="50.50288" lon="3.92726">
        <ele>110.69</ele>
        <time>2013-03-17T10:19:18Z</time>
      </trkpt>
      <trkpt lat="50.50307" lon="3.92735">
        <ele>110.69</ele>
        <time>2013-03-17T10:19:32Z</time>
      </trkpt>
      <trkpt lat="50.50332" lon="3.92749">
        <ele>110.69</ele>
        <time>2013-03-17T10:19:48Z</time>
      </trkpt>
      <trkpt lat="50.50353" lon="3.92755">
        <ele>111.17</ele>
        <time>2013-03-17T10:20:03Z</time>
      </trkpt>
      <trkpt lat="50.50376" lon="3.92764">
        <ele>112.13</ele>
        <time>2013-03-17T10:20:19Z</time>
      </trkpt>
      <trkpt lat="50.50392" lon="3.92774">
        <ele>112.13</ele>
        <time>2013-03-17T10:20:32Z</time>
      </trkpt>
      <trkpt lat="50.50411" lon="3.92778">
        <ele>112.13</ele>
        <time>2013-03-17T10:20:47Z</time>
      </trkpt>
      <trkpt lat="50.50436" lon="3.9278">
        <ele>112.61</ele>
        <time>2013-03-17T10:21:03Z</time>
      </trkpt>
      <trkpt lat="50.50457" lon="3.92781">
        <ele>113.09</ele>
        <time>2013-03-17T10:21:19Z</time>
      </trkpt>
      <trkpt lat="50.50463" lon="3.92782">
        <ele>113.57</ele>
        <time>2013-03-17T10:21:23Z</time>
      </trkpt>
      <trkpt lat="50.5047" lon="3.92786">
        <ele>113.57</ele>
        <time>2013-03-17T10:21:27Z</time>
      </trkpt>
      <trkpt lat="50.50499" lon="3.92801">
        <ele>114.05</ele>
        <time>2013-03-17T10:21:47Z</time>
      </trkpt>
      <trkpt lat="50.50505" lon="3.92801">
        <ele>113.57</ele>
        <time>2013-03-17T10:21:51Z</time>
      </trkpt>
      <trkpt lat="50.50508" lon="3.92801">
        <ele>113.57</ele>
        <time>2013-03-17T10:21:53Z</time>
      </trkpt>
      <trkpt lat="50.50533" lon="3.9281">
        <ele>114.05</ele>
        <time>2013-03-17T10:22:10Z</time>
      </trkpt>
      <trkpt lat="50.50562" lon="3.92817">
        <ele>115.5</ele>
        <time>2013-03-17T10:22:29Z</time>
      </trkpt>
      <trkpt lat="50.5059" lon="3.92817">
        <ele>115.98</ele>
        <time>2013-03-17T10:22:47Z</time>
      </trkpt>
      <trkpt lat="50.50602" lon="3.92819">
        <ele>115.98</ele>
        <time>2013-03-17T10:22:55Z</time>
      </trkpt>
      <trkpt lat="50.50625" lon="3.92827">
        <ele>115.98</ele>
        <time>2013-03-17T10:23:11Z</time>
      </trkpt>
      <trkpt lat="50.50649" lon="3.92828">
        <ele>116.94</ele>
        <time>2013-03-17T10:23:28Z</time>
      </trkpt>
      <trkpt lat="50.50654" lon="3.9283">
        <ele>116.94</ele>
        <time>2013-03-17T10:23:32Z</time>
      </trkpt>
      <trkpt lat="50.50658" lon="3.92806">
        <ele>116.94</ele>
        <time>2013-03-17T10:23:44Z</time>
      </trkpt>
      <trkpt lat="50.50658" lon="3.92805">
        <ele>116.94</ele>
        <time>2013-03-17T10:23:45Z</time>
      </trkpt>
      <trkpt lat="50.50679" lon="3.92747">
        <ele>117.42</ele>
        <time>2013-03-17T10:24:02Z</time>
      </trkpt>
      <trkpt lat="50.5068" lon="3.92742">
        <ele>117.42</ele>
        <time>2013-03-17T10:24:04Z</time>
      </trkpt>
      <trkpt lat="50.50683" lon="3.92731">
        <ele>117.42</ele>
        <time>2013-03-17T10:24:10Z</time>
      </trkpt>
      <trkpt lat="50.50681" lon="3.92721">
        <ele>116.94</ele>
        <time>2013-03-17T10:24:17Z</time>
      </trkpt>
      <trkpt lat="50.50682" lon="3.92705">
        <ele>116.46</ele>
        <time>2013-03-17T10:24:28Z</time>
      </trkpt>
      <trkpt lat="50.50681" lon="3.92698">
        <ele>116.94</ele>
        <time>2013-03-17T10:24:34Z</time>
      </trkpt>
      <trkpt lat="50.50682" lon="3.92688">
        <ele>116.94</ele>
        <time>2013-03-17T10:24:38Z</time>
      </trkpt>
      <trkpt lat="50.50686" lon="3.92666">
        <ele>115.98</ele>
        <time>2013-03-17T10:24:52Z</time>
      </trkpt>
      <trkpt lat="50.50693" lon="3.92648">
        <ele>115.01</ele>
        <time>2013-03-17T10:25:09Z</time>
      </trkpt>
      <trkpt lat="50.50702" lon="3.92624">
        <ele>115.5</ele>
        <time>2013-03-17T10:25:24Z</time>
      </trkpt>
      <trkpt lat="50.50719" lon="3.92578">
        <ele>115.5</ele>
        <time>2013-03-17T10:25:39Z</time>
      </trkpt>
      <trkpt lat="50.50737" lon="3.92533">
        <ele>115.98</ele>
        <time>2013-03-17T10:25:57Z</time>
      </trkpt>
      <trkpt lat="50.50738" lon="3.92529">
        <ele>115.5</ele>
        <time>2013-03-17T10:25:59Z</time>
      </trkpt>
      <trkpt lat="50.50758" lon="3.92495">
        <ele>115.5</ele>
        <time>2013-03-17T10:26:18Z</time>
      </trkpt>
      <trkpt lat="50.50775" lon="3.92471">
        <ele>115.98</ele>
        <time>2013-03-17T10:26:35Z</time>
      </trkpt>
      <trkpt lat="50.50795" lon="3.92444">
        <ele>115.5</ele>
        <time>2013-03-17T10:26:52Z</time>
      </trkpt>
      <trkpt lat="50.50815" lon="3.92416">
        <ele>115.98</ele>
        <time>2013-03-17T10:27:10Z</time>
      </trkpt>
      <trkpt lat="50.50831" lon="3.92391">
        <ele>116.46</ele>
        <time>2013-03-17T10:27:26Z</time>
      </trkpt>
      <trkpt lat="50.5082" lon="3.92354">
        <ele>115.5</ele>
        <time>2013-03-17T10:27:46Z</time>
      </trkpt>
      <trkpt lat="50.50806" lon="3.92323">
        <ele>115.98</ele>
        <time>2013-03-17T10:28:05Z</time>
      </trkpt>
      <trkpt lat="50.50791" lon="3.92289">
        <ele>115.01</ele>
        <time>2013-03-17T10:28:23Z</time>
      </trkpt>
      <trkpt lat="50.50781" lon="3.9227">
        <ele>115.98</ele>
        <time>2013-03-17T10:28:35Z</time>
      </trkpt>
      <trkpt lat="50.50769" lon="3.92248">
        <ele>115.5</ele>
        <time>2013-03-17T10:28:51Z</time>
      </trkpt>
      <trkpt lat="50.50758" lon="3.92221">
        <ele>115.5</ele>
        <time>2013-03-17T10:29:05Z</time>
      </trkpt>
      <trkpt lat="50.50755" lon="3.92218">
        <ele>115.98</ele>
        <time>2013-03-17T10:29:07Z</time>
      </trkpt>
      <trkpt lat="50.50741" lon="3.92187">
        <ele>115.01</ele>
        <time>2013-03-17T10:29:25Z</time>
      </trkpt>
      <trkpt lat="50.50735" lon="3.92167">
        <ele>115.01</ele>
        <time>2013-03-17T10:29:34Z</time>
      </trkpt>
      <trkpt lat="50.50729" lon="3.92136">
        <ele>115.01</ele>
        <time>2013-03-17T10:29:48Z</time>
      </trkpt>
      <trkpt lat="50.50716" lon="3.92113">
        <ele>115.01</ele>
        <time>2013-03-17T10:30:02Z</time>
      </trkpt>
      <trkpt lat="50.50707" lon="3.92099">
        <ele>115.01</ele>
        <time>2013-03-17T10:30:10Z</time>
      </trkpt>
      <trkpt lat="50.50701" lon="3.92086">
        <ele>115.01</ele>
        <time>2013-03-17T10:30:17Z</time>
      </trkpt>
      <trkpt lat="50.50692" lon="3.92075">
        <ele>114.53</ele>
        <time>2013-03-17T10:30:29Z</time>
      </trkpt>
      <trkpt lat="50.50696" lon="3.92065">
        <ele>114.53</ele>
        <time>2013-03-17T10:30:39Z</time>
      </trkpt>
      <trkpt lat="50.50702" lon="3.92056">
        <ele>115.01</ele>
        <time>2013-03-17T10:30:45Z</time>
      </trkpt>
      <trkpt lat="50.50723" lon="3.92038">
        <ele>115.98</ele>
        <time>2013-03-17T10:31:02Z</time>
      </trkpt>
      <trkpt lat="50.50735" lon="3.92029">
        <ele>115.5</ele>
        <time>2013-03-17T10:31:15Z</time>
      </trkpt>
      <trkpt lat="50.50748" lon="3.92018">
        <ele>115.5</ele>
        <time>2013-03-17T10:31:28Z</time>
      </trkpt>
      <trkpt lat="50.50766" lon="3.92003">
        <ele>115.01</ele>
        <time>2013-03-17T10:31:44Z</time>
      </trkpt>
      <trkpt lat="50.50782" lon="3.91994">
        <ele>115.5</ele>
        <time>2013-03-17T10:31:59Z</time>
      </trkpt>
      <trkpt lat="50.50811" lon="3.91973">
        <ele>115.01</ele>
        <time>2013-03-17T10:32:18Z</time>
      </trkpt>
      <trkpt lat="50.50831" lon="3.91952">
        <ele>115.01</ele>
        <time>2013-03-17T10:32:34Z</time>
      </trkpt>
      <trkpt lat="50.50846" lon="3.91945">
        <ele>115.98</ele>
        <time>2013-03-17T10:32:47Z</time>
      </trkpt>
      <trkpt lat="50.50866" lon="3.9194">
        <ele>115.98</ele>
        <time>2013-03-17T10:33:01Z</time>
      </trkpt>
      <trkpt lat="50.50871" lon="3.91935">
        <ele>115.5</ele>
        <time>2013-03-17T10:33:06Z</time>
      </trkpt>
      <trkpt lat="50.50877" lon="3.9193">
        <ele>115.98</ele>
        <time>2013-03-17T10:33:11Z</time>
      </trkpt>
      <trkpt lat="50.50902" lon="3.91922">
        <ele>116.46</ele>
        <time>2013-03-17T10:33:27Z</time>
      </trkpt>
      <trkpt lat="50.50923" lon="3.9191">
        <ele>116.46</ele>
        <time>2013-03-17T10:33:40Z</time>
      </trkpt>
      <trkpt lat="50.50948" lon="3.91879">
        <ele>116.94</ele>
        <time>2013-03-17T10:33:49Z</time>
      </trkpt>
      <trkpt lat="50.50966" lon="3.91881">
        <ele>116.94</ele>
        <time>2013-03-17T10:34:04Z</time>
      </trkpt>
      <trkpt lat="50.50993" lon="3.91884">
        <ele>116.46</ele>
        <time>2013-03-17T10:34:23Z</time>
      </trkpt>
      <trkpt lat="50.50994" lon="3.91885">
        <ele>116.46</ele>
        <time>2013-03-17T10:34:24Z</time>
      </trkpt>
      <trkpt lat="50.50995" lon="3.91886">
        <ele>116.46</ele>
        <time>2013-03-17T10:34:25Z</time>
      </trkpt>
      <trkpt lat="50.51017" lon="3.91891">
        <ele>116.46</ele>
        <time>2013-03-17T10:34:39Z</time>
      </trkpt>
      <trkpt lat="50.51021" lon="3.91922">
        <ele>116.46</ele>
        <time>2013-03-17T10:34:54Z</time>
      </trkpt>
      <trkpt lat="50.51022" lon="3.91963">
        <ele>116.46</ele>
        <time>2013-03-17T10:35:12Z</time>
      </trkpt>
      <trkpt lat="50.51019" lon="3.92">
        <ele>117.42</ele>
        <time>2013-03-17T10:35:31Z</time>
      </trkpt>
      <trkpt lat="50.51013" lon="3.92038">
        <ele>116.94</ele>
        <time>2013-03-17T10:35:48Z</time>
      </trkpt>
      <trkpt lat="50.5101" lon="3.92069">
        <ele>116.94</ele>
        <time>2013-03-17T10:36:03Z</time>
      </trkpt>
      <trkpt lat="50.51008" lon="3.92084">
        <ele>116.94</ele>
        <time>2013-03-17T10:36:15Z</time>
      </trkpt>
      <trkpt lat="50.51008" lon="3.92088">
        <ele>117.42</ele>
        <time>2013-03-17T10:36:17Z</time>
      </trkpt>
      <trkpt lat="50.51007" lon="3.92089">
        <ele>116.94</ele>
        <time>2013-03-17T10:36:18Z</time>
      </trkpt>
      <trkpt lat="50.51007" lon="3.9211">
        <ele>116.94</ele>
        <time>2013-03-17T10:36:29Z</time>
      </trkpt>
      <trkpt lat="50.51007" lon="3.92115">
        <ele>116.94</ele>
        <time>2013-03-17T10:36:31Z</time>
      </trkpt>
      <trkpt lat="50.51004" lon="3.92142">
        <ele>116.46</ele>
        <time>2013-03-17T10:36:44Z</time>
      </trkpt>
      <trkpt lat="50.51" lon="3.92184">
        <ele>116.94</ele>
        <time>2013-03-17T10:37:02Z</time>
      </trkpt>
      <trkpt lat="50.51" lon="3.92186">
        <ele>116.46</ele>
        <time>2013-03-17T10:37:03Z</time>
      </trkpt>
      <trkpt lat="50.51" lon="3.92188">
        <ele>116.94</ele>
        <time>2013-03-17T10:37:04Z</time>
      </trkpt>
      <trkpt lat="50.51" lon="3.92189">
        <ele>116.46</ele>
        <time>2013-03-17T10:37:05Z</time>
      </trkpt>
      <trkpt lat="50.50999" lon="3.92192">
        <ele>116.94</ele>
        <time>2013-03-17T10:37:06Z</time>
      </trkpt>
      <trkpt lat="50.50998" lon="3.92194">
        <ele>116.46</ele>
        <time>2013-03-17T10:37:07Z</time>
      </trkpt>
      <trkpt lat="50.50991" lon="3.92226">
        <ele>116.46</ele>
        <time>2013-03-17T10:37:23Z</time>
      </trkpt>
      <trkpt lat="50.50986" lon="3.92271">
        <ele>116.46</ele>
        <time>2013-03-17T10:37:41Z</time>
      </trkpt>
      <trkpt lat="50.50986" lon="3.92311">
        <ele>116.46</ele>
        <time>2013-03-17T10:37:58Z</time>
      </trkpt>
      <trkpt lat="50.5099" lon="3.92348">
        <ele>115.98</ele>
        <time>2013-03-17T10:38:14Z</time>
      </trkpt>
      <trkpt lat="50.5099" lon="3.92351">
        <ele>116.46</ele>
        <time>2013-03-17T10:38:15Z</time>
      </trkpt>
      <trkpt lat="50.50991" lon="3.92358">
        <ele>116.46</ele>
        <time>2013-03-17T10:38:18Z</time>
      </trkpt>
      <trkpt lat="50.50991" lon="3.9236">
        <ele>115.98</ele>
        <time>2013-03-17T10:38:19Z</time>
      </trkpt>
      <trkpt lat="50.50992" lon="3.92362">
        <ele>115.98</ele>
        <time>2013-03-17T10:38:20Z</time>
      </trkpt>
      <trkpt lat="50.50997" lon="3.9238">
        <ele>115.98</ele>
        <time>2013-03-17T10:38:28Z</time>
      </trkpt>
      <trkpt lat="50.51001" lon="3.92404">
        <ele>114.53</ele>
        <time>2013-03-17T10:38:39Z</time>
      </trkpt>
      <trkpt lat="50.51005" lon="3.92441">
        <ele>115.01</ele>
        <time>2013-03-17T10:38:54Z</time>
      </trkpt>
      <trkpt lat="50.51009" lon="3.92458">
        <ele>115.01</ele>
        <time>2013-03-17T10:39:02Z</time>
      </trkpt>
      <trkpt lat="50.5101" lon="3.9246">
        <ele>115.01</ele>
        <time>2013-03-17T10:39:03Z</time>
      </trkpt>
      <trkpt lat="50.51013" lon="3.9249">
        <ele>115.01</ele>
        <time>2013-03-17T10:39:17Z</time>
      </trkpt>
      <trkpt lat="50.51017" lon="3.92522">
        <ele>114.53</ele>
        <time>2013-03-17T10:39:32Z</time>
      </trkpt>
      <trkpt lat="50.51021" lon="3.92545">
        <ele>118.86</ele>
        <time>2013-03-17T10:39:43Z</time>
      </trkpt>
      <trkpt lat="50.51022" lon="3.92548">
        <ele>115.01</ele>
        <time>2013-03-17T10:39:45Z</time>
      </trkpt>
      <trkpt lat="50.51022" lon="3.92553">
        <ele>113.57</ele>
        <time>2013-03-17T10:39:48Z</time>
      </trkpt>
    </trkseg>
  </trk>
</gpx>